• Join FlightAware (Why Join?)
  • Login
  • US Flag 
10:55AM EDT


 

Airport Tracker/Info


-or-


 

Live Flight TrackerFlight Track Log ✈ AFL150 ✈ 21-Oct-2013 ✈ UUEE / SVO - MUHA / HAV

Flight Track Log - Related Links

Times and Time Zones

All times are in EDT time to prevent confusion due to time zone crossing. See the AFL150 flight status page for this flight to view local times or setup timezone preferences in your user account.

Time Position Orientation Groundspeed Altitude Reporting Facility
EDT Latitude Longitude Course Direction KTS MPH feet Rate Location/Type
09:08AM 55.9650 37.3730 254° West 179 206 1,300  Level FlightAware
09:08AM 55.9600 37.3440 253° West 180 207 2,100 2,100 Climbing FlightAware
09:08AM 55.9560 37.3150 256° West 192 221 2,700 1,200 Climbing FlightAware
09:09AM 55.9510 37.2730 258° West 219 252 3,000 900 Climbing FlightAware
09:09AM 55.9450 37.2350 254° West 245 282 3,400 1,500 Climbing FlightAware
09:09AM 55.9430 37.2050 263° West 254 292 3,900 2,520 Climbing FlightAware
09:10AM 55.9470 37.1640 280° West 250 288 4,900 2,820 Climbing FlightAware
09:10AM 55.9520 37.1240 283° West 252 290 5,800 2,400 Climbing FlightAware
09:10AM 55.9570 37.0830 282° West 259 298 6,500 2,400 Climbing FlightAware
09:11AM 55.9610 37.0420 280° West 260 299 7,400 1,500 Climbing FlightAware
09:11AM 55.9670 36.9800 280° West 264 304 8,000 540 Climbing FlightAware
09:12AM 55.9740 36.9100 280° West 262 302 8,000  Level FlightAware
09:12AM 55.9760 36.8840 278° West 262 302 8,000  Level FlightAware
09:12AM 55.9800 36.8420 280° West 261 300 8,000 120 Level FlightAware
09:13AM 55.9830 36.7950 277° West 262 302 8,100 600 Climbing FlightAware
09:13AM 55.9790 36.7410 262° West 263 303 8,500 1,080 Climbing FlightAware
09:13AM 55.9770 36.7000 265° West 266 306 8,900 1,080 Climbing FlightAware
09:14AM 55.9720 36.6410 261° West 283 326 9,300 900 Climbing FlightAware
09:14AM 55.9690 36.5960 263° West 293 337 9,600 1,020 Climbing FlightAware
09:14AM 55.9660 36.5460 264° West 301 346 10,000 960 Climbing FlightAware
09:15AM 55.9590 36.4530 262° West 318 366 10,500 900 Climbing FlightAware
09:16AM 55.9530 36.3590 264° West 316 364 11,100 1,560 Climbing FlightAware
09:16AM 55.9590 36.2970 280° West 313 360 12,200 2,100 Climbing FlightAware
09:17AM 55.9710 36.2080 284° West 315 362 13,200 2,100 Climbing FlightAware
09:17AM 55.9820 36.1160 282° West 317 365 14,600 2,340 Climbing FlightAware
09:18AM 55.9920 36.0440 284° West 316 364 15,900 2,280 Climbing FlightAware
09:18AM 56.0070 35.9340 284° West 320 368 17,400 1,740 Climbing FlightAware
09:19AM 56.0180 35.8490 283° West 329 379 18,000 480 Climbing FlightAware
09:20AM 56.0320 35.7440 283° West 341 392 18,000 540 Level FlightAware
09:20AM 56.0450 35.6420 283° West 342 394 18,700 1,500 Climbing FlightAware
09:21AM 56.0560 35.5580 283° West 346 398 19,700 1,920 Climbing FlightAware
09:21AM 56.0700 35.4540 284° West 349 402 20,900 1,740 Climbing FlightAware
09:22AM 56.0810 35.3650 283° West 354 407 21,700 1,500 Climbing FlightAware
09:22AM 56.0950 35.2600 283° West 363 418 22,600 1,380 Climbing FlightAware
09:23AM 56.1070 35.1610 282° West 369 425 23,400 1,380 Climbing FlightAware
09:24AM 56.1200 35.0580 283° West 372 428 24,200 1,500 Climbing FlightAware
09:24AM 56.1360 34.9380 284° West 376 433 25,200 1,320 Climbing FlightAware
09:25AM 56.1490 34.8270 282° West 379 436 25,900 1,560 Climbing FlightAware
09:25AM 56.1610 34.7290 282° West 371 427 27,000 1,380 Climbing FlightAware
09:26AM 56.1750 34.6200 283° West 380 437 27,500 780 Climbing FlightAware
09:26AM 56.1870 34.5240 283° West 384 442 27,900 840 Climbing FlightAware
09:27AM 56.1990 34.4210 282° West 389 448 28,400 840 Climbing FlightAware
09:28AM 56.2120 34.3090 282° West 394 453 28,900 720 Climbing FlightAware
09:28AM 56.2260 34.1960 283° West 398 458 29,300 1,020 Climbing FlightAware
09:29AM 56.2420 34.0590 282° West 395 455 30,300 1,320 Climbing FlightAware
09:30AM 56.2560 33.9400 282° West 391 450 31,100 1,140 Climbing FlightAware
09:30AM 56.2700 33.8190 282° West 391 450 31,700 1,320 Climbing FlightAware
09:31AM 56.2830 33.7030 281° West 377 434 32,800 1,380 Climbing FlightAware
09:31AM 56.2960 33.5870 281° West 376 433 33,500 900 Climbing FlightAware
09:32AM 56.3100 33.4630 282° West 376 433 34,000 360 Climbing FlightAware
09:33AM 56.3230 33.3500 282° West 387 445 34,000  Level FlightAware
09:33AM 56.3370 33.2230 281° West 395 455 34,000  Level FlightAware
09:34AM 56.3510 33.0930 281° West 395 455 34,000  Level FlightAware
09:34AM 56.3620 32.9990 282° West 394 453 34,000  Level FlightAware
09:35AM 56.3750 32.8760 281° West 392 451 34,000  Level FlightAware
09:36AM 56.3860 32.7730 281° West 391 450 34,000  Level FlightAware
09:36AM 56.3990 32.6450 280° West 389 448 34,000  Level FlightAware
09:37AM 56.4090 32.5500 281° West 388 447 34,000  Level FlightAware
09:37AM 56.4220 32.4230 281° West 388 447 34,000  Level FlightAware
09:38AM 56.4320 32.3270 281° West 389 448 34,000  Level FlightAware
09:39AM 56.4430 32.2170 280° West 390 449 34,000  Level FlightAware
09:39AM 56.4560 32.0890 280° West 389 448 34,000  Level FlightAware
09:40AM 56.4650 32.0030 281° West 388 447 34,000  Level FlightAware
09:40AM 56.4750 31.8950 280° West 388 447 34,000  Level FlightAware
09:41AM 56.4850 31.7970 281° West 388 447 34,000  Level FlightAware
09:42AM 56.4940 31.6990 279° West 388 447 34,000  Level FlightAware
09:42AM 56.5040 31.5980 280° West 388 447 34,000  Level FlightAware
09:43AM 56.5140 31.4970 280° West 388 447 34,000  Level FlightAware
09:43AM 56.5310 31.3120 280° West 376 433 34,000  Level FlightAware
09:44AM 56.5470 31.1620 281° West 376 433 34,000  Level FlightAware
09:45AM 56.5570 31.0670 281° West 376 433 34,000  Level FlightAware
09:45AM 56.5830 31.0270 320° Northwest 372 428 34,000  Level FlightAware
09:46AM 56.6200 30.9290 304° West 375 432 34,000  Level FlightAware
09:46AM 56.6600 30.8450 311° West 377 434 34,000  Level FlightAware
09:47AM 56.7050 30.7470 310° West 379 436 34,000  Level FlightAware
09:47AM 56.7410 30.6570 306° West 377 434 34,000  Level FlightAware
09:48AM 56.7730 30.5720 305° West 378 435 34,000  Level FlightAware
09:49AM 56.8100 30.4730 304° West 376 433 34,000  Level FlightAware
09:49AM 56.8420 30.3860 304° West 376 433 34,000  Level FlightAware
09:50AM 56.8730 30.3020 304° West 376 433 34,000  Level FlightAware
09:50AM 56.9080 30.2080 304° West 378 435 34,000  Level FlightAware
09:51AM 56.9460 30.1050 304° West 378 435 34,000  Level FlightAware
09:52AM 56.9770 30.0180 303° West 379 436 34,000  Level FlightAware
09:52AM 57.0140 29.9180 304° West 379 436 34,000  Level FlightAware
09:53AM 57.0450 29.8320 304° West 379 436 34,000  Level FlightAware
09:53AM 57.0860 29.7180 304° West 380 437 34,000  Level FlightAware
09:54AM 57.1190 29.6250 303° West 382 440 34,000  Level FlightAware
09:55AM 57.1520 29.5320 303° West 383 441 34,000  Level FlightAware
09:55AM 57.1840 29.4450 304° West 385 443 34,000  Level FlightAware
09:56AM 57.2220 29.3370 303° West 388 447 34,000  Level FlightAware
09:56AM 57.2560 29.2410 303° West 390 449 34,000  Level FlightAware
09:57AM 57.2940 29.1330 303° West 392 451 34,000  Level FlightAware
09:57AM 57.3240 29.0460 303° West 393 452 34,000  Level FlightAware
09:58AM 57.3590 28.9470 303° West 393 452 34,000  Level FlightAware
09:59AM 57.4010 28.8260 303° West 394 453 34,000  Level FlightAware
09:59AM 57.4320 28.7370 303° West 394 453 34,000  Level FlightAware
10:00AM 57.4690 28.6290 303° West 395 455 34,000  Level FlightAware
10:00AM 57.5000 28.5380 302° West 394 453 34,000  Level FlightAware
10:01AM 57.5370 28.4300 303° West 395 455 34,000  Level FlightAware
10:02AM 57.5720 28.3290 303° West 395 455 34,000  Level FlightAware
10:02AM 57.6060 28.2270 302° West 394 453 34,000  Level FlightAware
10:03AM 57.6380 28.1340 303° West 394 453 34,000  Level FlightAware
10:03AM 57.6690 28.0400 302° West 394 453 34,000  Level FlightAware
10:04AM 57.7060 27.9290 302° West 395 455 34,000  Level FlightAware
10:05AM 57.7380 27.8350 303° West 395 455 34,000  Level FlightAware
10:05AM 57.7730 27.7280 302° West 396 456 34,000  Level FlightAware
10:06AM 57.8090 27.6200 302° West 397 457 34,000  Level FlightAware
10:06AM 57.8390 27.5220 300° West 396 456 34,000  Level FlightAware
10:07AM 57.8600 27.4130 290° West 395 455 34,000  Level FlightAware
10:07AM 57.8840 27.2940 291° West 395 455 34,000  Level FlightAware
10:08AM 57.9060 27.1890 292° West 396 456 34,000  Level FlightAware
10:09AM 57.9300 27.0700 291° West 398 458 34,000  Level FlightAware
10:09AM 57.9530 26.9550 291° West 400 460 34,000  Level FlightAware
10:10AM 57.9750 26.8450 291° West 400 460 34,000  Level FlightAware
10:10AM 57.9960 26.7370 290° West 402 463 34,000  Level FlightAware
10:11AM 58.0220 26.6050 290° West 402 463 34,000  Level FlightAware
10:12AM 58.0530 26.4470 290° West 404 465 34,000  Level FlightAware
10:12AM 58.0750 26.3340 290° West 405 466 34,000  Level FlightAware
10:13AM 58.0970 26.2180 290° West 407 468 34,000  Level FlightAware
10:14AM 58.1210 26.0950 290° West 408 470 34,000  Level FlightAware
10:14AM 58.1400 25.9920 289° West 409 471 34,000  Level FlightAware
10:15AM 58.1620 25.8750 290° West 409 471 34,000  Level FlightAware
10:15AM 58.1870 25.7440 290° West 410 472 34,000  Level FlightAware
10:16AM 58.2080 25.6330 290° West 412 474 34,000  Level FlightAware
10:16AM 58.2300 25.5110 289° West 413 475 34,000  Level FlightAware
10:17AM 58.2520 25.3960 290° West 415 478 34,000  Level FlightAware
10:18AM 58.2740 25.2770 289° West 414 476 34,000  Level FlightAware
10:18AM 58.2940 25.1630 289° West 414 476 34,000  Level FlightAware
10:19AM 58.3190 25.0270 289° West 414 476 34,000  Level FlightAware
10:19AM 58.3410 24.9040 289° West 416 479 34,000  Level FlightAware
10:20AM 58.3610 24.7930 289° West 416 479 34,000  Level FlightAware
10:21AM 58.3820 24.6730 289° West 416 479 34,000  Level FlightAware
10:21AM 58.4020 24.5600 289° West 417 480 34,000  Level FlightAware
10:22AM 58.4240 24.4380 289° West 418 481 34,000  Level FlightAware
10:22AM 58.4450 24.2930 286° West 421 484 34,000  Level FlightAware
10:23AM 58.4650 24.1640 287° West 422 486 34,000  Level FlightAware
10:23AM 58.4810 24.0560 286° West 423 487 34,000  Level FlightAware
10:24AM 58.5010 23.9210 286° West 425 489 34,000  Level FlightAware
10:25AM 58.5180 23.8030 285° West 426 490 34,000  Level FlightAware
10:25AM 58.5370 23.6800 287° West 425 489 34,000  Level FlightAware
10:26AM 58.5560 23.5480 285° West 426 490 34,000  Level FlightAware
10:26AM 58.5760 23.4100 286° West 426 490 34,000  Level FlightAware
10:27AM 58.5930 23.2900 285° West 427 491 34,000  Level FlightAware
10:28AM 58.6110 23.1620 285° West 429 494 34,000  Level FlightAware
10:28AM 58.6300 23.0290 285° West 429 494 34,000  Level FlightAware
10:29AM 58.6460 22.9150 285° West 431 496 34,000  Level FlightAware
10:29AM 58.6650 22.7790 285° West 432 497 34,000  Level FlightAware
10:30AM 58.6840 22.6390 285° West 433 498 34,000  Level FlightAware
10:30AM 58.7020 22.5120 285° West 433 498 34,000  Level FlightAware
10:31AM 58.7180 22.3920 284° West 432 497 34,000  Level FlightAware
10:32AM 58.7350 22.2670 285° West 433 498 34,000  Level FlightAware
10:32AM 58.7530 22.1290 284° West 434 499 34,000  Level FlightAware
10:33AM 58.7700 22.0020 285° West 435 501 34,000  Level FlightAware
10:33AM 58.7870 21.8740 284° West 436 502 34,000  Level FlightAware
10:34AM 58.8040 21.7470 285° West 436 502 34,000  Level FlightAware
10:35AM 58.8220 21.6060 284° West 436 502 34,000  Level FlightAware
10:35AM 58.8390 21.4740 284° West 436 502 34,000  Level FlightAware
10:36AM 58.8600 21.3050 284° West 436 502 34,000  Level FlightAware
10:36AM 58.8760 21.1750 283° West 438 504 34,000  Level FlightAware
10:37AM 58.8890 21.0720 284° West 439 505 34,000  Level FlightAware
10:37AM 58.9090 20.9330 286° West 438 504 34,000  Level FlightAware
10:38AM 58.9360 20.8110 293° West 437 503 34,000  Level FlightAware
10:39AM 58.9600 20.6770 289° West 437 503 34,000  Level FlightAware
10:39AM 58.9800 20.5580 288° West 438 504 34,000  Level FlightAware
10:40AM 59.0030 20.4160 288° West 439 505 34,000  Level FlightAware
10:40AM 59.0240 20.2820 287° West 438 504 34,000  Level FlightAware
10:41AM 59.0346 20.2168 288° West 438 504 34,000  Level FlightAware ADS-B
10:41AM 59.0523 20.1047 287° West 439 505 34,000  Level FlightAware ADS-B
10:42AM 59.0705 19.9900 287° West 439 505 34,000  Level FlightAware ADS-B
10:42AM 59.0934 19.8436 287° West 441 507 34,000  Level FlightAware ADS-B
10:43AM 59.1113 19.7277 287° West 438 504 34,000  Level FlightAware ADS-B
10:44AM 59.1346 19.5758 287° West 438 504 34,000  Level FlightAware ADS-B
10:44AM 59.1517 19.4634 287° West 438 504 34,000  Level FlightAware ADS-B
10:45AM 59.1698 19.3456 287° West 437 503 34,000  Level FlightAware ADS-B
10:45AM 59.1926 19.1959 287° West 438 504 34,000  Level FlightAware ADS-B
10:46AM 59.2094 19.0833 286° West 437 503 34,000  Level FlightAware ADS-B
10:46AM 59.2264 18.9690 286° West 438 504 34,000  Level FlightAware ADS-B
10:47AM 59.2433 18.8537 286° West 439 505 34,000  Level FlightAware ADS-B
10:47AM 59.2599 18.7411 286° West 440 506 34,000  Level FlightAware ADS-B
10:48AM 59.2768 18.6251 286° West 440 506 34,000  Level FlightAware ADS-B
10:48AM 59.2938 18.5083 286° West 440 506 34,000  Level FlightAware ADS-B
10:49AM 59.3160 18.3548 286° West 439 505 34,000  Level FlightAware ADS-B
10:49AM 59.3356 18.2165 286° West 441 507 34,000  Level FlightAware ADS-B
10:50AM 59.3534 18.0898 285° West 441 507 34,000  Level FlightAware ADS-B
10:51AM 59.3698 17.9723 285° West 443 510 34,000  Level FlightAware ADS-B
10:51AM 59.3858 17.8580 285° West 443 510 34,000  Level FlightAware ADS-B
10:52AM 59.4018 17.7422 285° West 440 506 34,000  Level FlightAware ADS-B
10:52AM 59.4173 17.6291 285° West 439 505 34,000  Level FlightAware ADS-B
10:53AM 59.4334 17.5098 285° West 438 504 34,000  Level FlightAware ADS-B
10:53AM 59.4491 17.3938 285° West 438 504 34,000  Level FlightAware ADS-B
10:54AM 59.4689 17.2451 285° West 437 503 34,000  Level FlightAware ADS-B
10:54AM 59.4847 17.1266 285° West 435 501 34,000  Level FlightAware ADS-B
10:55AM 59.5046 16.9761 285° West 434 499 34,000  Level FlightAware ADS-B
10:55AM 59.5200 16.8577 284° West 434 499 34,000  Level FlightAware ADS-B
10:56AM 59.5392 16.7092 284° West 432 497 34,000  Level FlightAware ADS-B
10:57AM 59.5560 16.5778 284° West 432 497 34,000  Level FlightAware ADS-B
10:57AM 59.5759 16.4214 284° West 433 498 34,000  Level FlightAware ADS-B
10:58AM 59.5946 16.2731 284° West 434 499 34,000  Level FlightAware ADS-B
10:58AM 59.6089 16.1572 284° West 435 501 34,000  Level FlightAware ADS-B
10:59AM 59.6240 16.0345 284° West 436 502 34,000  Level FlightAware ADS-B
11:00AM 59.6425 15.8816 284° West 438 504 34,000  Level FlightAware ADS-B
11:00AM 59.6579 15.7552 284° West 436 502 34,000  Level FlightAware ADS-B
11:01AM 59.6740 15.6190 283° West 434 499 34,000  Level FlightAware
11:01AM 59.6777 15.5905 284° West 435 501 34,000  Level FlightAware ADS-B
11:01AM 59.6910 15.4800 283° West 433 498 34,000  Level FlightAware
11:02AM 59.7070 15.3440 283° West 432 497 34,000  Level FlightAware
11:03AM 59.7240 15.1960 283° West 426 490 34,000  Level FlightAware
11:03AM 59.7380 15.0710 283° West 425 489 34,000  Level FlightAware
11:04AM 59.7540 14.9380 283° West 424 488 34,000  Level FlightAware
11:04AM 59.7660 14.8240 282° West 421 484 34,000  Level FlightAware
11:05AM 59.7790 14.7080 283° West 420 483 34,000  Level FlightAware
11:05AM 59.7950 14.5670 283° West 420 483 34,000  Level FlightAware
11:06AM 59.8080 14.4450 282° West 421 484 34,000  Level FlightAware
11:07AM 59.8230 14.3130 283° West 423 487 34,000  Level FlightAware
11:07AM 59.8380 14.1700 282° West 424 488 34,000  Level FlightAware
11:08AM 59.8520 14.0380 282° West 425 489 34,000  Level FlightAware
11:08AM 59.8660 13.9050 282° West 425 489 34,000  Level FlightAware
11:09AM 59.8840 13.7390 282° West 424 488 34,000  Level FlightAware
11:10AM 59.8960 13.6180 281° West 423 487 34,000  Level FlightAware
11:10AM 59.9180 13.4720 287° West 425 489 34,000  Level FlightAware
11:11AM 59.9310 13.3830 286° West 426 490 34,000  Level FlightAware
11:11AM 59.9480 13.2720 287° West 426 490 34,000  Level FlightAware
11:12AM 59.9730 13.1060 287° West 425 489 34,000  Level FlightAware
11:13AM 59.9950 12.9590 287° West 422 486 34,000  Level FlightAware
11:13AM 60.0120 12.8440 287° West 422 486 34,000  Level FlightAware
11:14AM 60.0320 12.7080 286° West 422 486 34,000  Level FlightAware
11:14AM 60.0510 12.5730 286° West 423 487 34,000  Level FlightAware
11:15AM 60.0700 12.4430 286° West 422 486 34,000  Level FlightAware
11:15AM 60.0900 12.3040 286° West 421 484 34,000  Level FlightAware
11:16AM 60.1090 12.1670 286° West 422 486 34,000  Level FlightAware
11:17AM 60.1270 12.0370 286° West 423 487 34,000  Level FlightAware
11:17AM 60.1460 11.9010 286° West 422 486 34,000  Level FlightAware
11:18AM 60.1640 11.7700 285° West 423 487 34,000  Level FlightAware
11:18AM 60.1830 11.6350 286° West 424 488 34,000  Level FlightAware
11:19AM 60.2020 11.4910 285° West 425 489 34,000  Level FlightAware
11:20AM 60.2190 11.3640 285° West 426 490 34,000  Level FlightAware
11:20AM 60.2390 11.2200 286° West 426 490 34,000  Level FlightAware
11:21AM 60.2530 11.1120 285° West 426 490 34,000  Level FlightAware
11:21AM 60.2760 10.9390 285° West 426 490 34,000  Level FlightAware
11:22AM 60.2910 10.8190 284° West 426 490 34,000  Level FlightAware
11:23AM 60.3090 10.6780 285° West 426 490 34,000  Level FlightAware
11:23AM 60.3270 10.5400 285° West 426 490 34,000  Level FlightAware
11:24AM 60.3430 10.4160 285° West 427 491 34,000  Level FlightAware
11:24AM 60.3590 10.2830 284° West 426 490 34,000  Level FlightAware
11:25AM 60.3770 10.1430 285° West 427 491 34,000  Level FlightAware
11:25AM 60.3940 9.9990 283° West 428 493 34,000  Level FlightAware
11:26AM 60.4110 9.8590 284° West 429 494 34,000  Level FlightAware
11:27AM 60.4260 9.7360 284° West 430 495 34,000  Level FlightAware
11:27AM 60.4430 9.5960 284° West 429 494 34,000  Level FlightAware
11:28AM 60.4600 9.4540 284° West 431 496 34,000  Level FlightAware
11:28AM 60.4760 9.3160 283° West 432 497 34,000  Level FlightAware
11:29AM 60.4910 9.1800 283° West 434 499 34,000  Level FlightAware
11:30AM 60.5080 9.0370 284° West 436 502 34,000  Level FlightAware
11:30AM 60.5230 8.9030 283° West 436 502 34,000  Level FlightAware
11:31AM 60.5370 8.7810 283° West 435 501 34,000  Level FlightAware
11:31AM 60.5550 8.6220 283° West 435 501 34,000  Level FlightAware
11:32AM 60.5700 8.4810 282° West 435 501 34,000  Level FlightAware
11:32AM 60.5840 8.3510 282° West 434 499 34,000  Level FlightAware
11:33AM 60.5990 8.2100 282° West 433 498 34,000  Level FlightAware
11:34AM 60.6160 8.0580 283° West 434 499 34,000  Level FlightAware
11:34AM 60.6280 7.9380 282° West 434 499 34,000  Level FlightAware
11:35AM 60.6440 7.7920 283° West 434 499 34,000  Level FlightAware
11:35AM 60.6590 7.6440 282° West 434 499 34,000  Level FlightAware
11:36AM 60.6665 7.5716 282° West 434 499 34,000  Level FlightAware ADS-B (EGBP)
11:36AM 60.6785 7.4533 282° West 433 498 34,000  Level FlightAware ADS-B (EGBP)
11:37AM 60.6949 7.2906 282° West 434 499 34,000  Level FlightAware ADS-B (EGBP)
11:38AM 60.7106 7.1317 282° West 434 499 34,000  Level FlightAware ADS-B (EGBP)
11:38AM 60.7225 7.0100 281° West 435 501 34,000  Level FlightAware ADS-B (EGBP)
11:39AM 60.7342 6.8899 281° West 436 502 34,000  Level FlightAware ADS-B (EGBP)
11:39AM 60.7493 6.7315 281° West 435 501 34,000  Level FlightAware ADS-B (EGBP)
11:40AM 60.7611 6.6078 281° West 436 502 34,000  Level FlightAware ADS-B (EGBP)
11:40AM 60.7761 6.4476 281° West 435 501 34,000  Level FlightAware ADS-B (EGBP)
11:41AM 60.7909 6.2884 281° West 435 501 34,000  Level FlightAware ADS-B (EGBP)
11:42AM 60.8056 6.1270 281° West 436 502 34,000  Level FlightAware ADS-B (EGBP)
11:42AM 60.8199 5.9687 281° West 437 503 34,000  Level FlightAware ADS-B (EGBP)
11:43AM 60.8312 5.8415 280° West 436 502 34,000  Level FlightAware ADS-B (EGBP)
11:43AM 60.8450 5.6843 280° West 434 499 34,000  Level FlightAware ADS-B (EGBP)
11:44AM 60.8580 5.5360 280° West 433 498 34,000  Level FlightAware
11:45AM 60.8700 5.3900 280° West 434 499 34,000  Level FlightAware
11:45AM 60.8810 5.2650 280° West 434 499 34,000  Level FlightAware
11:46AM 60.8940 5.1000 279° West 434 499 34,000  Level FlightAware
11:46AM 60.9050 4.9700 280° West 435 501 34,000  Level FlightAware
11:47AM 60.9160 4.8340 280° West 435 501 34,000  Level FlightAware
11:48AM 60.9290 4.6770 280° West 436 502 34,000  Level FlightAware
11:48AM 60.9400 4.5330 279° West 436 502 34,000  Level FlightAware
11:49AM 60.9500 4.4030 279° West 435 501 34,000  Level FlightAware
11:49AM 60.9610 4.2530 279° West 436 502 34,000  Level FlightAware
11:50AM 60.9730 4.1000 279° West 438 504 34,000  Level FlightAware
11:51AM 60.9820 3.9730 278° West 438 504 34,000  Level FlightAware
11:51AM 60.9930 3.8250 279° West 437 503 34,000  Level FlightAware
11:52AM 61.0040 3.6730 279° West 436 502 34,000  Level FlightAware
11:52AM 61.0140 3.5400 279° West 436 502 34,000  Level FlightAware
11:53AM 61.0230 3.4050 278° West 435 501 34,000  Level FlightAware
11:53AM 61.0330 3.2570 278° West 437 503 34,000  Level FlightAware
11:54AM 61.0430 3.1060 278° West 439 505 34,000  Level FlightAware
11:55AM 61.0530 2.9600 278° West 440 506 34,000  Level FlightAware
11:55AM 61.0630 2.8150 278° West 439 505 34,000  Level FlightAware
11:56AM 61.0710 2.6820 277° West 439 505 34,000  Level FlightAware
11:56AM 61.0810 2.5220 277° West 438 504 34,000  Level FlightAware
11:57AM 61.0900 2.3860 278° West 438 504 34,000  Level FlightAware
11:58AM 61.0990 2.2320 277° West 440 506 34,000  Level FlightAware
11:58AM 61.1080 2.0870 277° West 441 507 34,000  Level FlightAware
11:59AM 61.1170 1.9330 277° West 441 507 34,000  Level FlightAware
11:59AM 61.1240 1.8000 276° West 440 506 34,000  Level FlightAware
12:00PM 61.1320 1.6620 277° West 441 507 34,000  Level FlightAware
12:00PM 61.1400 1.5090 276° West 441 507 34,000  Level FlightAware
12:01PM 61.1490 1.3520 277° West 441 507 34,000  Level FlightAware
12:02PM 61.1570 1.2080 277° West 440 506 34,000  Level FlightAware
12:02PM 61.1640 1.0750 276° West 440 506 34,000  Level FlightAware
12:03PM 61.1720 0.9200 276° West 441 507 34,000  Level FlightAware
12:03PM 61.1790 0.7740 276° West 442 509 34,000  Level FlightAware
12:04PM 61.1860 0.6210 275° West 443 510 34,000  Level FlightAware
12:05PM 61.1930 0.4830 276° West 445 512 34,000 600 Level FlightAware
12:05PM 61.2000 0.3260 275° West 439 505 34,700 960 Climbing FlightAware
12:06PM 61.2070 0.1730 275° West 441 507 35,200 660 Climbing FlightAware
12:06PM 61.2190 0.0320 280° West 448 516 35,500 720 Climbing FlightAware
12:07PM 61.2380 -0.1000 287° West 444 511 36,000 420 Climbing FlightAware
12:07PM 61.2680 -0.2400 294° West 440 506 36,000  Level FlightAware
12:08PM 61.3010 -0.3830 296° West 440 506 36,000  Level FlightAware
12:09PM 61.3280 -0.5050 295° West 440 506 36,000  Level FlightAware
12:09PM 61.3600 -0.6510 295° West 441 507 36,000  Level FlightAware
12:10PM 61.3880 -0.7750 295° West 440 506 36,000  Level FlightAware
12:10PM 61.4170 -0.9080 295° West 440 506 36,000  Level FlightAware
12:11PM 61.4570 -1.0950 294° West 441 507 36,000  Level FlightAware
12:12PM 61.4860 -1.2280 295° West 445 512 36,000  Level FlightAware
12:12PM 61.5170 -1.3720 294° West 446 513 36,000  Level FlightAware
12:13PM 61.5470 -1.5150 294° West 448 516 36,000  Level FlightAware
12:14PM 61.5770 -1.6570 294° West 449 517 36,000  Level FlightAware
12:14PM 61.6040 -1.7840 294° West 450 518 36,000  Level FlightAware
12:15PM 61.6320 -1.9220 293° West 450 518 36,000  Level FlightAware
12:15PM 61.6650 -2.0790 294° West 450 518 36,000  Level FlightAware
12:16PM 61.6930 -2.2170 293° West 449 517 36,000  Level FlightAware
12:16PM 61.7200 -2.3480 294° West 448 516 36,000  Level FlightAware
12:17PM 61.7450 -2.4750 293° West 449 517 36,000  Level FlightAware
12:18PM 61.7750 -2.6240 293° West 449 517 36,000  Level FlightAware
12:18PM 61.8130 -2.8110 293° West 450 518 36,000  Level FlightAware
12:19PM 61.8430 -2.9670 292° West 447 514 36,000  Level FlightAware
12:20PM 61.8780 -3.1450 293° West 449 517 36,000  Level FlightAware
12:20PM 61.9060 -3.2880 293° West 451 519 36,000  Level FlightAware
12:21PM 61.9330 -3.4250 293° West 451 519 36,000  Level FlightAware
12:22PM 61.9730 -3.6360 292° West 450 518 36,000  Level FlightAware
12:22PM 61.9930 -3.7470 291° West 450 518 36,000  Level FlightAware
12:23PM 62.0160 -3.8730 291° West 450 518 36,000  Level FlightAware
12:25PM 62.0199 -4.2727 271° West  Level Estimated
12:25PM 62.1230 -4.4410 271° West 454 522 36,000  Level FlightAware
12:26PM 62.1600 -4.6450 291° West 453 521 36,000  Level FlightAware
12:26PM 62.1830 -4.7730 291° West 453 521 36,000  Level FlightAware
12:27PM 62.2060 -4.9020 291° West 453 521 36,000  Level FlightAware
12:28PM 62.2300 -5.0340 291° West 453 521 36,000  Level FlightAware
12:28PM 62.2520 -5.1550 291° West 453 521 36,000  Level FlightAware
12:29PM 62.2750 -5.2880 290° West 453 521 36,000  Level FlightAware
12:29PM 62.2970 -5.4090 291° West 453 521 36,000  Level FlightAware
12:30PM 62.3490 -5.7140 290° West 450 518 36,000  Level FlightAware
12:31PM 62.3760 -5.8730 290° West 450 518 36,000  Level FlightAware
12:31PM 62.4020 -6.0330 289° West 450 518 36,000  Level FlightAware
12:32PM 62.4250 -6.1650 291° West 450 518 36,000  Level FlightAware
12:33PM 62.4550 -6.3460 290° West 451 519 36,000  Level FlightAware
12:33PM 62.4760 -6.4800 289° West 451 519 36,000  Level FlightAware
12:34PM 62.4960 -6.6040 289° West 451 519 36,000  Level FlightAware
12:34PM 62.5160 -6.7340 288° West 451 519 36,000  Level FlightAware
12:35PM 62.5370 -6.8650 289° West 451 519 36,000  Level FlightAware
12:36PM 62.5860 -7.1630 290° West 455 524 36,000  Level FlightAware
12:36PM 62.6060 -7.2960 288° West 455 524 36,000  Level FlightAware
12:37PM 62.6260 -7.4330 288° West 455 524 36,000  Level FlightAware
12:38PM 62.6460 -7.5660 288° West 455 524 36,000  Level FlightAware
12:38PM 62.6670 -7.7030 289° West 455 524 36,000  Level FlightAware
12:39PM 62.6930 -7.8810 288° West 455 524 36,000  Level FlightAware
12:40PM 62.7130 -8.0180 288° West 455 524 36,000  Level FlightAware
12:40PM 62.7650 -8.3310 290° West 450 518 36,000  Level FlightAware
12:41PM 62.7870 -8.4820 288° West 450 518 36,000  Level FlightAware
12:41PM 62.8050 -8.6150 287° West 450 518 36,000  Level FlightAware
12:42PM 62.8360 -8.8160 289° West 450 518 36,000  Level FlightAware
12:43PM 62.8570 -8.9680 287° West 450 518 36,000  Level FlightAware
12:43PM 62.8760 -9.1020 287° West 450 518 36,000  Level FlightAware
12:44PM 62.9070 -9.3140 288° West 451 519 36,000  Level FlightAware
12:45PM 62.9290 -9.4740 287° West 450 518 36,000  Level FlightAware
12:45PM 62.9480 -9.6120 287° West 448 516 36,000  Level FlightAware
12:46PM 62.9690 -9.7700 286° West 447 514 36,000  Level FlightAware
12:46PM 62.9900 -9.9190 287° West 447 514 36,000  Level FlightAware
12:47PM 63.0080 -10.0550 286° West 447 514 36,000  Level FlightAware
12:47PM 63.0320 -10.2300 287° West 447 514 36,000  Level FlightAware
12:48PM 63.0530 -10.3850 287° West 447 514 36,000  Level FlightAware
12:49PM 63.0750 -10.5420 287° West 447 514 36,000  Level FlightAware
12:49PM 63.0940 -10.6850 286° West 447 514 36,000  Level FlightAware
12:50PM 63.1120 -10.8220 286° West 446 513 36,000  Level FlightAware
12:50PM 63.1290 -10.9510 286° West 447 514 36,000  Level FlightAware
12:51PM 63.1490 -11.1010 287° West 448 516 36,000  Level FlightAware
12:51PM 63.1720 -11.2790 286° West 449 517 36,000  Level FlightAware
12:52PM 63.1900 -11.4210 286° West 448 516 36,000  Level FlightAware
12:53PM 63.2100 -11.5800 286° West 447 514 36,000  Level FlightAware
12:53PM 63.2300 -11.7360 286° West 447 514 36,000  Level FlightAware
12:54PM 63.2500 -11.8940 286° West 448 516 36,000  Level FlightAware
12:54PM 63.2670 -12.0360 285° West 447 514 36,000  Level FlightAware
12:55PM 63.2870 -12.1970 286° West 447 514 36,000  Level FlightAware
12:56PM 63.3070 -12.3640 285° West 449 517 36,000  Level FlightAware
12:56PM 63.3250 -12.5140 285° West 450 518 36,000  Level FlightAware
12:57PM 63.3430 -12.6670 285° West 450 518 36,000  Level FlightAware
12:57PM 63.3600 -12.8160 284° West 449 517 36,000  Level FlightAware
12:58PM 63.3780 -12.9650 285° West 449 517 36,000  Level FlightAware
12:58PM 63.3970 -13.1310 284° West 449 517 36,000  Level FlightAware
12:59PM 63.4140 -13.2840 284° West 449 517 36,000  Level FlightAware
01:00PM 63.4320 -13.4480 284° West 449 517 36,000  Level FlightAware
01:00PM 63.4500 -13.6100 284° West 450 518 36,000  Level FlightAware
01:01PM 63.4660 -13.7550 284° West 449 517 36,000  Level FlightAware
01:01PM 63.4840 -13.9190 284° West 447 514 36,000  Level FlightAware
01:02PM 63.5020 -14.0820 284° West 446 513 36,000  Level FlightAware
01:03PM 63.5190 -14.2440 283° West 444 511 36,000  Level FlightAware
01:03PM 63.5340 -14.3860 283° West 444 511 36,000  Level FlightAware
01:04PM 63.5490 -14.5380 283° West 445 512 36,000  Level FlightAware
01:04PM 63.5660 -14.6990 283° West 446 513 36,000  Level FlightAware
01:05PM 63.5830 -14.8630 283° West 447 514 36,000  Level FlightAware
01:05PM 63.5990 -15.0250 283° West 447 514 36,000  Level FlightAware
01:06PM 63.6130 -15.1700 282° West 448 516 36,000  Level FlightAware
01:07PM 63.6300 -15.3380 283° West 449 517 36,000  Level FlightAware
01:07PM 63.6440 -15.4840 282° West 450 518 36,000  Level FlightAware
01:08PM 63.6600 -15.6560 282° West 450 518 36,000  Level FlightAware
01:08PM 63.6760 -15.8270 282° West 451 519 36,000  Level FlightAware
01:09PM 63.6880 -15.9630 281° West 451 519 36,000  Level FlightAware
01:10PM 63.7050 -16.1390 282° West 450 518 36,000  Level FlightAware
01:10PM 63.7190 -16.3020 281° West 448 516 36,000  Level FlightAware
01:11PM 63.7300 -16.4190 282° West 447 514 36,000  Level FlightAware
01:11PM 63.7460 -16.6050 281° West 444 511 36,000  Level FlightAware
01:12PM 63.7620 -16.7860 281° West 445 512 36,000  Level FlightAware
01:12PM 63.7740 -16.9320 281° West 445 512 36,000  Level FlightAware
01:13PM 63.7880 -17.0930 281° West 447 514 36,000  Level FlightAware
01:14PM 63.8000 -17.2430 280° West 448 516 36,000  Level FlightAware
01:14PM 63.8140 -17.4090 281° West 447 514 36,000  Level FlightAware
01:15PM 63.8280 -17.5820 280° West 445 512 36,000  Level FlightAware
01:15PM 63.8410 -17.7450 280° West 443 510 36,000  Level FlightAware
01:16PM 63.8540 -17.9090 280° West 442 509 36,000  Level FlightAware
01:17PM 63.8650 -18.0580 280° West 441 507 36,000  Level FlightAware
01:17PM 63.8770 -18.2100 280° West 440 506 36,000  Level FlightAware
01:18PM 63.8880 -18.3640 279° West 439 505 36,000  Level FlightAware
01:18PM 63.9000 -18.5260 280° West 440 506 36,000  Level FlightAware
01:19PM 63.9120 -18.6900 280° West 442 509 36,000  Level FlightAware
01:19PM 63.9240 -18.8570 279° West 442 509 36,000  Level FlightAware
01:20PM 63.9350 -19.0130 279° West 442 509 36,000  Level FlightAware
01:21PM 63.9460 -19.1650 279° West 442 509 36,000  Level FlightAware
01:21PM 63.9560 -19.3180 279° West 441 507 36,000  Level FlightAware
01:22PM 63.9670 -19.4860 279° West 440 506 36,000  Level FlightAware
01:22PM 63.9780 -19.6490 279° West 441 507 36,000  Level FlightAware
01:23PM 63.9880 -19.8020 279° West 441 507 36,000  Level FlightAware
01:24PM 63.9990 -19.9660 279° West 441 507 36,000  Level FlightAware
01:24PM 64.0170 -20.1230 285° West 444 511 36,000  Level FlightAware
01:25PM 64.0400 -20.2910 287° West 444 511 36,000  Level FlightAware
01:25PM 64.0600 -20.4340 288° West 445 512 36,000  Level FlightAware
01:26PM 64.0800 -20.5890 287° West 447 514 36,000  Level FlightAware
01:26PM 64.1040 -20.7620 288° West 449 517 36,000  Level FlightAware
01:27PM 64.1220 -20.9050 286° West 449 517 36,000  Level FlightAware
01:28PM 64.1450 -21.0780 287° West 451 519 36,000  Level FlightAware
01:28PM 64.1660 -21.2440 286° West 452 520 36,000  Level FlightAware
01:29PM 64.1840 -21.3780 287° West 453 521 36,000  Level FlightAware
01:29PM 64.2060 -21.5560 286° West 452 520 36,000  Level FlightAware
01:30PM 64.2270 -21.7200 286° West 451 519 36,000  Level FlightAware
01:31PM 64.2450 -21.8650 286° West 452 520 36,000  Level FlightAware
01:31PM 64.2660 -22.0340 286° West 453 521 36,000  Level FlightAware
01:32PM 64.2860 -22.2010 286° West 454 522 36,000  Level FlightAware
01:32PM 64.3050 -22.3550 286° West 455 524 36,000  Level FlightAware
01:33PM 64.3220 -22.5050 285° West 453 521 36,000  Level FlightAware
01:33PM 64.3450 -22.6940 286° West 452 520 36,000  Level FlightAware
01:34PM 64.3620 -22.8420 285° West 453 521 36,000  Level FlightAware
01:35PM 64.3800 -23.0000 285° West 453 521 36,000  Level FlightAware
01:35PM 64.4010 -23.1850 285° West 451 519 36,000  Level FlightAware
01:36PM 64.4180 -23.3340 285° West 451 519 36,000  Level FlightAware
01:36PM 64.4380 -23.5120 285° West 449 517 36,000  Level FlightAware
01:37PM 64.4540 -23.6600 284° West 449 517 36,000  Level FlightAware
01:38PM 64.4710 -23.8130 285° West 449 517 36,000  Level FlightAware
01:38PM 64.4890 -23.9840 284° West 449 517 36,000  Level FlightAware
01:39PM 64.5070 -24.1520 284° West 450 518 36,000  Level FlightAware
01:39PM 64.5250 -24.3210 284° West 451 519 36,000  Level FlightAware
01:40PM 64.5440 -24.5040 284° West 452 520 36,000  Level FlightAware
01:41PM 64.5610 -24.6750 283° West 452 520 36,000  Level FlightAware
01:41PM 64.5790 -24.8470 284° West 451 519 36,000  Level FlightAware
01:42PM 64.5950 -25.0080 283° West 449 517 36,000  Level FlightAware
01:42PM 64.6100 -25.1620 283° West 449 517 36,000  Level FlightAware
01:43PM 64.6250 -25.3150 283° West 450 518 36,000  Level FlightAware
01:43PM 64.6430 -25.4940 283° West 450 518 36,000  Level FlightAware
01:44PM 64.6590 -25.6660 282° West 450 518 36,000  Level FlightAware
01:45PM 64.6740 -25.8220 283° West 449 517 36,000  Level FlightAware
01:45PM 64.6900 -26.0050 282° West 450 518 36,000  Level FlightAware
01:46PM 64.7040 -26.1480 283° West 449 517 36,000  Level FlightAware
01:46PM 64.7210 -26.3350 282° West 449 517 36,000  Level FlightAware
01:47PM 64.7330 -26.4740 281° West 449 517 36,000  Level FlightAware
01:48PM 64.7500 -26.6680 282° West 449 517 36,000  Level FlightAware
01:48PM 64.7700 -26.9050 281° West 449 517 36,000  Level FlightAware
01:49PM 64.7820 -27.0450 281° West 450 518 36,000  Level FlightAware
01:50PM 64.7960 -27.2090 281° West 451 519 36,000  Level FlightAware
01:50PM 64.8110 -27.3900 281° West 450 518 36,000  Level FlightAware
01:51PM 64.8250 -27.5620 281° West 449 517 36,000  Level FlightAware
01:51PM 64.8400 -27.7470 281° West 450 518 36,000  Level FlightAware
01:52PM 64.8520 -27.8990 281° West 450 518 36,000  Level FlightAware
01:52PM 64.8640 -28.0550 280° West 449 517 36,000  Level FlightAware
01:53PM 64.8790 -28.2500 280° West 449 517 36,000  Level FlightAware
01:54PM 64.8900 -28.4020 280° West 449 517 36,000  Level FlightAware
01:54PM 64.9030 -28.5710 280° West 449 517 36,000  Level FlightAware
01:55PM 64.9130 -28.7170 279° West 448 516 36,000  Level FlightAware
01:55PM 64.9250 -28.8910 279° West 448 516 36,000  Level FlightAware
01:56PM 64.9340 -29.0310 279° West 448 516 36,000  Level FlightAware
01:57PM 64.9510 -29.2590 280° West 447 514 36,000  Level FlightAware
01:57PM 64.9600 -29.3910 279° West 447 514 36,000  Level FlightAware
01:58PM 64.9730 -29.5800 279° West 446 513 36,000  Level FlightAware
01:59PM 64.9860 -29.7890 278° West 446 513 36,000  Level FlightAware
01:59PM 64.9990 -29.9900 279° West 442 509 36,000  Level FlightAware
02:00PM 65.0070 -30.2190 275° West 444 511 36,000  Level FlightAware
02:00PM 65.0120 -30.3760 274° West 445 512 36,000  Level FlightAware
02:01PM 65.0180 -30.5520 275° West 447 514 36,000  Level FlightAware
02:02PM 65.0210 -30.7060 273° West 447 514 36,000  Level FlightAware
02:02PM 65.0280 -30.8990 275° West 447 514 36,000  Level FlightAware
02:03PM 65.0320 -31.0750 273° West 448 516 36,000  Level FlightAware
02:03PM 65.0370 -31.2410 274° West 446 513 36,000  Level FlightAware
02:04PM 65.0400 -31.3760 273° West 446 513 36,000  Level FlightAware
02:05PM 65.0430 -31.5260 273° West 446 513 36,000  Level FlightAware
02:05PM 65.0460 -31.6830 273° West 446 513 36,000  Level FlightAware
02:06PM 65.0500 -31.8330 274° West 446 513 36,000  Level FlightAware
02:06PM 65.0530 -31.9820 273° West 446 513 36,000  Level FlightAware
02:07PM 65.0560 -32.1230 273° West 446 513 36,000  Level FlightAware
02:08PM 65.0590 -32.2730 273° West 446 513 36,000  Level FlightAware
02:08PM 65.0630 -32.4230 274° West 446 513 36,000  Level FlightAware
02:09PM 65.0660 -32.5720 273° West 446 513 36,000  Level FlightAware
02:09PM 65.0690 -32.7220 273° West 446 513 36,000  Level FlightAware
02:10PM 65.0730 -32.8840 273° West 446 513 36,000  Level FlightAware
02:11PM 65.0770 -33.0620 273° West 446 513 36,000  Level FlightAware
02:11PM 65.0800 -33.2120 273° West 446 513 36,000  Level FlightAware
02:12PM 65.0830 -33.3620 273° West 446 513 36,000  Level FlightAware
02:13PM 65.0870 -33.5110 274° West 446 513 36,000  Level FlightAware
02:13PM 65.0900 -33.6610 273° West 446 513 36,000  Level FlightAware
02:16PM 64.9585 -34.2138 241° Southwest  Level Estimated
02:17PM 64.9015 -34.4491 240° Southwest  Level Estimated
02:18PM 64.8441 -34.6834 240° Southwest  Level Estimated
02:19PM 64.7864 -34.9167 240° Southwest  Level Estimated
02:20PM 64.7283 -35.1489 240° Southwest  Level Estimated
02:21PM 64.6698 -35.3802 240° Southwest  Level Estimated
02:22PM 64.6110 -35.6105 239° Southwest  Level Estimated
02:23PM 64.5518 -35.8397 239° Southwest  Level Estimated
02:24PM 64.4923 -36.0680 239° Southwest  Level Estimated
02:25PM 64.4324 -36.2953 239° Southwest  Level Estimated
02:26PM 64.3722 -36.5216 238° Southwest  Level Estimated
02:27PM 64.3116 -36.7469 238° Southwest  Level Estimated
02:28PM 64.2507 -36.9712 238° Southwest  Level Estimated
02:29PM 64.1894 -37.1945 238° Southwest  Level Estimated
02:30PM 64.1278 -37.4168 238° Southwest  Level Estimated
02:31PM 64.0658 -37.6382 237° Southwest  Level Estimated
02:32PM 64.0036 -37.8585 237° Southwest  Level Estimated
02:33PM 63.9409 -38.0779 237° Southwest  Level Estimated
02:34PM 63.8780 -38.2963 237° Southwest  Level Estimated
02:35PM 63.8147 -38.5137 237° Southwest  Level Estimated
02:36PM 63.7511 -38.7301 236° Southwest  Level Estimated
02:37PM 63.6872 -38.9456 236° Southwest  Level Estimated
02:38PM 63.6230 -39.1601 236° Southwest  Level Estimated
02:39PM 63.5698 -39.3362 236° Southwest  Level Estimated
02:40PM 63.5164 -39.5117 236° Southwest  Level Estimated
02:41PM 63.4627 -39.6865 236° Southwest  Level Estimated
02:42PM 63.4089 -39.8606 235° Southwest  Level Estimated
02:43PM 63.3549 -40.0341 235° Southwest  Level Estimated
02:44PM 63.3006 -40.2069 235° Southwest  Level Estimated
02:45PM 63.2461 -40.3791 235° Southwest  Level Estimated
02:46PM 63.1914 -40.5507 235° Southwest  Level Estimated
02:47PM 63.1366 -40.7216 235° Southwest  Level Estimated
02:48PM 63.0815 -40.8918 234° Southwest  Level Estimated
02:49PM 63.0262 -41.0614 234° Southwest  Level Estimated
02:50PM 62.9707 -41.2304 234° Southwest  Level Estimated
02:51PM 62.9150 -41.3987 234° Southwest  Level Estimated
02:52PM 62.8591 -41.5663 234° Southwest  Level Estimated
02:53PM 62.8030 -41.7334 234° Southwest  Level Estimated
02:54PM 62.7467 -41.8998 234° Southwest  Level Estimated
02:55PM 62.6902 -42.0655 233° Southwest  Level Estimated
02:56PM 62.6335 -42.2307 233° Southwest  Level Estimated
02:57PM 62.5767 -42.3952 233° Southwest  Level Estimated
02:58PM 62.5196 -42.5590 233° Southwest  Level Estimated
02:59PM 62.4623 -42.7223 233° Southwest  Level Estimated
03:00PM 62.4049 -42.8849 233° Southwest  Level Estimated
03:01PM 62.3472 -43.0469 233° Southwest  Level Estimated
03:02PM 62.2894 -43.2082 232° Southwest  Level Estimated
03:03PM 62.2314 -43.3690 232° Southwest  Level Estimated
03:04PM 62.1732 -43.5291 232° Southwest  Level Estimated
03:05PM 62.1148 -43.6886 232° Southwest  Level Estimated
03:06PM 62.0563 -43.8475 232° Southwest  Level Estimated
03:07PM 61.9975 -44.0058 232° Southwest  Level Estimated
03:08PM 61.9386 -44.1635 232° Southwest  Level Estimated
03:09PM 61.8795 -44.3206 231° Southwest  Level Estimated
03:10PM 61.8202 -44.4771 231° Southwest  Level Estimated
03:11PM 61.7607 -44.6329 231° Southwest  Level Estimated
03:11PM 63.9630 -50.2450 231° Southwest 454 522 36,000  Level FlightAware
03:12PM 61.7011 -44.7882 231° Southwest  Level Estimated
03:12PM 63.9400 -50.3880 250° West 454 522 36,000  Level FlightAware
03:13PM 63.9140 -50.5520 250° West 455 524 36,000  Level FlightAware
03:13PM 63.8910 -50.7010 251° West 455 524 36,000  Level FlightAware
03:14PM 63.8650 -50.8610 250° West 456 525 36,000  Level FlightAware
03:14PM 63.8400 -51.0150 250° West 455 524 36,000  Level FlightAware
03:15PM 63.8140 -51.1780 250° West 456 525 36,000  Level FlightAware
03:15PM 63.7940 -51.2990 250° West 456 525 36,000  Level FlightAware
03:16PM 63.7690 -51.4510 250° West 457 526 36,000  Level FlightAware
03:17PM 63.7420 -51.6160 250° West 458 527 36,000  Level FlightAware
03:17PM 63.7180 -51.7540 249° West 459 528 36,000  Level FlightAware
03:18PM 63.6920 -51.9110 250° West 461 531 36,000  Level FlightAware
03:18PM 63.6620 -52.0860 249° West 462 532 36,000  Level FlightAware
03:19PM 63.6370 -52.2290 249° West 463 533 36,000  Level FlightAware
03:19PM 63.6090 -52.3900 249° West 463 533 36,000  Level FlightAware
03:20PM 63.5810 -52.5530 249° West 464 534 36,000  Level FlightAware
03:23PM 63.4802 -53.0262 249° West  Level FlightAware Approximate
03:24PM 63.4455 -53.2234 249° West  Level FlightAware Approximate
03:24PM 63.3900 -53.6110 249° West 466 536 36,000  Level FlightAware
03:25PM 63.3630 -53.7540 247° West 465 535 36,000  Level FlightAware
03:25PM 63.3330 -53.9130 247° West 466 536 36,000  Level FlightAware
03:26PM 63.3010 -54.0860 248° West 467 537 36,000  Level FlightAware
03:26PM 63.2730 -54.2310 247° West 469 540 36,000  Level FlightAware
03:27PM 63.2420 -54.3860 246° West 469 540 36,000  Level FlightAware
03:28PM 63.2140 -54.5250 246° West 469 540 36,000  Level FlightAware
03:28PM 63.1870 -54.6590 246° West 469 540 36,000  Level FlightAware
03:29PM 63.1600 -54.7930 246° West 469 540 36,000  Level FlightAware
03:29PM 63.1330 -54.9280 246° West 469 540 36,000  Level FlightAware
03:30PM 63.1060 -55.0620 246° West 469 540 36,000  Level FlightAware
03:31PM 63.0780 -55.2000 246° West 469 540 36,000  Level FlightAware
03:31PM 63.0520 -55.3300 246° West 469 540 36,000  Level FlightAware
03:32PM 63.0250 -55.4630 246° West 469 540 36,000  Level FlightAware
03:32PM 62.9980 -55.5970 246° West 469 540 36,000  Level FlightAware
03:33PM 62.9700 -55.7340 246° West 469 540 36,000  Level FlightAware
03:34PM 62.9430 -55.8680 246° West 469 540 36,000  Level FlightAware
03:34PM 62.9160 -56.0010 246° West 469 540 36,000  Level FlightAware
03:35PM 62.8880 -56.1420 247° West 469 540 36,000  Level FlightAware
03:35PM 62.8610 -56.2750 246° West 469 540 36,000  Level FlightAware
03:36PM 62.8340 -56.4070 246° West 469 540 36,000  Level FlightAware
03:39PM 62.7127 -56.9687 245° Southwest  Level FlightAware Approximate
03:40PM 62.6622 -57.1981 244° Southwest  Level FlightAware Approximate
03:41PM 62.6113 -57.4268 244° Southwest  Level FlightAware Approximate
03:42PM 62.5600 -57.6547 244° Southwest  Level FlightAware Approximate
03:43PM 62.5084 -57.8819 244° Southwest  Level FlightAware Approximate
03:44PM 62.4564 -58.1082 244° Southwest  Level FlightAware Approximate
03:45PM 62.4041 -58.3337 243° Southwest  Level FlightAware Approximate
03:46PM 62.3513 -58.5585 243° Southwest  Level FlightAware Approximate
03:47PM 62.2983 -58.7824 243° Southwest  Level FlightAware Approximate
03:48PM 62.2448 -59.0056 243° Southwest  Level FlightAware Approximate
03:49PM 62.1910 -59.2280 243° Southwest  Level FlightAware Approximate
03:50PM 62.1369 -59.4496 242° Southwest  Level FlightAware Approximate
03:51PM 62.0824 -59.6704 242° Southwest  Level FlightAware Approximate
03:52PM 62.0275 -59.8904 242° Southwest  Level FlightAware Approximate
03:53PM 61.9560 -60.0816 221° Southwest  Level FlightAware Approximate
03:54PM 61.8679 -60.2443 221° Southwest  Level FlightAware Approximate
03:55PM 61.7795 -60.4061 221° Southwest  Level FlightAware Approximate
03:56PM 61.6910 -60.5669 221° Southwest  Level FlightAware Approximate
03:57PM 61.6023 -60.7268 221° Southwest  Level FlightAware Approximate
03:58PM 61.5134 -60.8858 220° Southwest  Level FlightAware Approximate
03:59PM 61.4243 -61.0439 220° Southwest  Level FlightAware Approximate
03:59PM 61.0500 -61.6667 221° Southwest 470 541 36,000  Level Montreal Center
04:00PM 61.3350 -61.2011 220° Southwest  Level FlightAware Approximate
04:00PM 60.9667 -61.8167 221° Southwest 460 529 36,000  Level Montreal Center
04:01PM 61.2465 -61.3596 221° Southwest  Level FlightAware Approximate
04:01PM 60.8667 -62.0000 222° Southwest 470 541 36,000  Level Montreal Center
04:02PM 61.1580 -61.5178 221° Southwest  Level FlightAware Approximate
04:02PM 60.7500 -62.1833 218° Southwest 470 541 36,000  Level Montreal Center
04:03PM 61.0694 -61.6752 221° Southwest  Level FlightAware Approximate
04:03PM 60.6500 -62.3667 222° Southwest 470 541 36,000  Level Montreal Center
04:04PM 60.9805 -61.8316 221° Southwest  Level FlightAware Approximate
04:04PM 60.5833 -62.6000 240° Southwest 470 541 36,000  Level Montreal Center
04:05PM 60.5333 -62.8333 247° West 470 541 36,000  Level Montreal Center
04:06PM 60.4833 -63.1000 249° West 470 541 36,000  Level Montreal Center
04:07PM 60.4333 -63.3500 248° West 470 541 36,000  Level Montreal Center
04:08PM 60.3833 -63.6167 249° West 480 552 36,000  Level Montreal Center
04:09PM 60.3333 -63.8667 248° West 470 541 36,000  Level Montreal Center
04:10PM 60.2833 -64.1000 247° West 470 541 36,000  Level Montreal Center
04:11PM 60.2500 -64.3500 255° West 470 541 36,000  Level Montreal Center
04:12PM 60.2000 -64.6000 248° West 470 541 36,000  Level Montreal Center
04:13PM 60.1500 -64.8333 247° West 470 541 36,000  Level Montreal Center
04:14PM 60.0833 -65.0500 238° Southwest 470 541 36,000  Level Montreal Center
04:15PM 60.0167 -65.2500 236° Southwest 470 541 36,000  Level Montreal Center
04:16PM 59.9167 -65.4500 225° Southwest 470 541 36,000  Level Montreal Center
04:17PM 59.8167 -65.6167 220° Southwest 470 541 36,000  Level Montreal Center
04:18PM 59.7167 -65.7833 220° Southwest 470 541 36,000  Level Montreal Center
04:19PM 59.6167 -65.9667 223° Southwest 470 541 36,000  Level Montreal Center
04:20PM 59.5167 -66.1333 220° Southwest 470 541 36,000  Level Montreal Center
04:21PM 59.4167 -66.3000 220° Southwest 460 529 36,000  Level Montreal Center
04:22PM 59.3167 -66.4667 220° Southwest 460 529 36,000  Level Montreal Center
04:23PM 59.2167 -66.6167 218° Southwest 470 541 36,000  Level Montreal Center
04:24PM 59.1167 -66.7833 221° Southwest 470 541 36,000  Level Montreal Center
04:25PM 59.0167 -66.9333 218° Southwest 460 529 36,000  Level Montreal Center
04:26PM 58.9333 -67.0833 223° Southwest 460 529 36,000  Level Montreal Center
04:27PM 58.8167 -67.2833 222° Southwest 460 529 36,000  Level Montreal Center
04:28PM 58.7333 -67.4333 223° Southwest 460 529 36,000  Level Montreal Center
04:29PM 58.6167 -67.5833 214° Southwest 460 529 36,000  Level Montreal Center
04:31PM 58.4817 -67.7527 213° Southwest  Level FlightAware Approximate
04:38PM 57.9289 -68.4302 213° Southwest  Level FlightAware Approximate
04:39PM 57.8497 -68.5253 213° Southwest  Level FlightAware Approximate
04:40PM 57.7704 -68.6200 212° Southwest  Level FlightAware Approximate
04:40PM 57.5000 -69.2667 213° Southwest 460 529 36,000  Level Gander Center
04:41PM 57.6910 -68.7142 212° Southwest  Level FlightAware Approximate
04:41PM 57.4000 -69.3667 208° Southwest 460 529 36,000  Level Montreal Center
04:42PM 57.6115 -68.8081 212° Southwest  Level FlightAware Approximate
04:42PM 57.2833 -69.5167 215° Southwest 460 529 36,000  Level Montreal Center
04:43PM 57.5320 -68.9015 212° Southwest  Level FlightAware Approximate
04:43PM 57.1833 -69.6167 208° Southwest 460 529 36,000  Level Montreal Center
04:44PM 57.4524 -68.9945 212° Southwest  Level FlightAware Approximate
04:44PM 57.0833 -69.7667 219° Southwest 460 529 36,000  Level Montreal Center
04:45PM 57.3731 -69.0883 213° Southwest  Level FlightAware Approximate
04:45PM 56.9833 -69.9000 216° Southwest 450 518 36,000  Level Montreal Center
04:46PM 56.8667 -70.0500 215° Southwest 450 518 36,000  Level Montreal Center
04:47PM 56.7667 -70.1500 209° Southwest 450 518 36,000  Level Montreal Center
04:48PM 56.6667 -70.3000 220° Southwest 450 518 36,000  Level Montreal Center
04:49PM 56.5667 -70.4333 216° Southwest 450 518 36,000  Level Montreal Center
04:50PM 56.4500 -70.5667 212° Southwest 450 518 36,000  Level Montreal Center
04:51PM 56.3667 -70.6667 214° Southwest 450 518 36,000  Level Montreal Center
04:52PM 56.2667 -70.8000 217° Southwest 450 518 36,000  Level Montreal Center
04:53PM 56.1500 -70.9500 216° Southwest 450 518 36,000  Level Montreal Center
04:54PM 56.0333 -71.0833 213° Southwest 440 506 36,000  Level Montreal Center
04:55PM 55.9333 -71.1833 209° Southwest 440 506 36,000  Level Montreal Center
04:56PM 55.8500 -71.3167 222° Southwest 450 518 36,000  Level Montreal Center
04:57PM 55.7333 -71.4167 206° Southwest 440 506 36,000  Level Montreal Center
04:58PM 55.6333 -71.5500 217° Southwest 440 506 36,000  Level Montreal Center
04:59PM 55.5167 -71.6833 213° Southwest 450 518 36,000  Level Montreal Center
05:00PM 55.4167 -71.8000 214° Southwest 440 506 36,000  Level Montreal Center
05:01PM 55.3333 -71.9000 214° Southwest 450 518 36,000  Level Montreal Center
05:02PM 55.2167 -72.0333 213° Southwest 440 506 36,000  Level Montreal Center
05:03PM 55.1000 -72.1667 213° Southwest 440 506 36,000  Level Montreal Center
05:04PM 55.0000 -72.3000 217° Southwest 450 518 36,000  Level Montreal Center
05:05PM 54.9000 -72.3833 206° Southwest 440 506 36,000  Level Montreal Center
05:06PM 54.7833 -72.5167 213° Southwest 440 506 36,000  Level Montreal Center
05:08PM 54.6229 -72.6323 203° Southwest  Level FlightAware Approximate
05:10PM 54.3667 -73.0167 203° Southwest 440 506 36,000  Level Gander Center
05:11PM 54.2833 -73.0833 205° Southwest 440 506 36,000  Level Montreal Center
05:13PM 54.0667 -73.3000 210° Southwest 440 506 36,000  Level Montreal Center
05:14PM 53.9667 -73.4167 214° Southwest 440 506 36,000  Level Montreal Center
05:15PM 54.0150 -73.0619 203° Southwest  Level FlightAware Approximate
05:15PM 53.8667 -73.5333 215° Southwest 430 495 36,000  Level Montreal Center
05:16PM 53.7500 -73.6500 211° Southwest 440 506 36,000  Level Montreal Center
05:17PM 53.6500 -73.7500 211° Southwest 430 495 36,000  Level Montreal Center
05:18PM 53.5333 -73.8333 203° Southwest 430 495 36,000  Level Montreal Center
05:19PM 53.4333 -73.9333 211° Southwest 430 495 36,000  Level Montreal Center
05:20PM 53.3167 -74.0167 203° Southwest 440 506 36,000  Level Montreal Center
05:21PM 53.2167 -74.1000 207° Southwest 440 506 36,000  Level Montreal Center
05:22PM 53.1000 -74.2000 207° Southwest 440 506 36,000  Level Montreal Center
05:23PM 53.0000 -74.2833 207° Southwest 440 506 36,000  Level Montreal Center
05:24PM 52.8833 -74.3667 203° Southwest 440 506 36,000  Level Montreal Center
05:25PM 52.8000 -74.4667 216° Southwest 430 495 36,000  Level Montreal Center
05:26PM 52.6833 -74.5500 203° Southwest 430 495 36,000  Level Montreal Center
05:27PM 52.5500 -74.6333 201° Southwest 430 495 36,000  Level Montreal Center
05:28PM 52.4500 -74.7167 207° Southwest 430 495 36,000  Level Montreal Center
05:29PM 52.3333 -74.8000 204° Southwest 430 495 36,000  Level Montreal Center
05:30PM 52.2167 -74.9167 212° Southwest 430 495 36,000  Level Montreal Center
05:31PM 52.1167 -74.9833 202° Southwest 430 495 36,000  Level Montreal Center
05:32PM 52.0167 -75.0833 212° Southwest 420 483 36,000  Level Montreal Center
05:33PM 51.9000 -75.1500 199° South 420 483 36,000  Level Montreal Center
05:34PM 51.8000 -75.2333 207° Southwest 430 495 36,000  Level Montreal Center
05:35PM 51.7000 -75.3167 207° Southwest 430 495 36,000  Level Montreal Center
05:36PM 51.5833 -75.4000 204° Southwest 420 483 36,000  Level Montreal Center
05:37PM 51.4833 -75.4833 207° Southwest 420 483 36,000  Level Montreal Center
05:38PM 51.3833 -75.5667 207° Southwest 420 483 36,000  Level Montreal Center
05:39PM 51.2667 -75.6500 204° Southwest 420 483 36,000  Level Montreal Center
05:40PM 51.1667 -75.7167 203° Southwest 420 483 36,000  Level Montreal Center
05:41PM 51.0500 -75.8000 204° Southwest 420 483 36,000  Level Montreal Center
05:42PM 50.9500 -75.8833 208° Southwest 420 483 36,000  Level Montreal Center
05:43PM 50.8500 -75.9667 208° Southwest 420 483 36,000  Level Montreal Center
05:44PM 50.7500 -76.0500 208° Southwest 410 472 36,000  Level Montreal Center
05:45PM 50.6333 -76.1167 200° South 410 472 36,000  Level Montreal Center
05:46PM 50.5333 -76.2000 208° Southwest 420 483 36,000  Level Montreal Center
05:47PM 50.4333 -76.2833 208° Southwest 420 483 36,000  Level Montreal Center
05:49PM 50.2167 -76.4167 202° Southwest 410 472 36,000  Level Montreal Center
05:50PM 50.1000 -76.4833 200° South 410 472 36,000  Level Montreal Center
05:51PM 50.0000 -76.5667 208° Southwest 410 472 36,000  Level Montreal Center
05:52PM 49.8833 -76.6500 205° Southwest 410 472 36,000  Level Montreal Center
05:53PM 49.7833 -76.7167 203° Southwest 410 472 36,000  Level Montreal Center
05:54PM 49.6833 -76.8000 208° Southwest 410 472 36,000  Level Montreal Center
05:55PM 49.5833 -76.8667 203° Southwest 410 472 36,000  Level Montreal Center
05:56PM 49.4833 -76.9500 208° Southwest 400 460 36,000  Level Montreal Center
05:57PM 49.3667 -77.0000 196° South 430 495 36,000  Level Montreal Center
05:58PM 49.2833 -77.0667 208° Southwest 400 460 36,000  Level Montreal Center
05:59PM 49.1667 -77.1500 205° Southwest 400 460 36,000  Level Montreal Center
06:00PM 49.0667 -77.2167 204° Southwest 410 472 36,000  Level Montreal Center
06:01PM 48.9667 -77.3000 209° Southwest 400 460 36,000  Level Montreal Center
06:02PM 48.8500 -77.3667 201° Southwest 400 460 36,000  Level Montreal Center
06:03PM 48.7500 -77.4500 209° Southwest 400 460 36,000  Level Montreal Center
06:08PM 48.2120 -77.7960 209° Southwest 411 473 36,000  Level FlightAware
06:09PM 48.1520 -77.8350 203° Southwest 411 473 36,000  Level FlightAware
06:09PM 48.0740 -77.8810 202° Southwest 411 473 36,000  Level FlightAware
06:10PM 48.0170 -77.9140 201° Southwest 410 472 36,000  Level FlightAware
06:10PM 47.9500 -77.9530 201° Southwest 410 472 36,000  Level FlightAware
06:11PM 47.8940 -77.9860 202° Southwest 410 472 36,000  Level FlightAware
06:12PM 47.8350 -78.0190 201° Southwest 410 472 36,000  Level FlightAware
06:12PM 47.7810 -78.0500 201° Southwest 410 472 36,000  Level FlightAware
06:13PM 47.6900 -78.1040 202° Southwest 410 472 36,000  Level FlightAware
06:13PM 47.6260 -78.1410 201° Southwest 407 468 36,000  Level FlightAware
06:14PM 47.5710 -78.1720 201° Southwest 405 466 36,000  Level FlightAware
06:15PM 47.5070 -78.2090 201° Southwest 404 465 36,000  Level FlightAware
06:15PM 47.4420 -78.2460 201° Southwest 404 465 36,000  Level FlightAware
06:16PM 47.3860 -78.2780 201° Southwest 405 466 36,000  Level FlightAware
06:16PM 47.3240 -78.3140 201° Southwest 405 466 36,000  Level FlightAware
06:17PM 47.2600 -78.3500 201° Southwest 405 466 36,000  Level FlightAware
06:18PM 47.1960 -78.3860 201° Southwest 406 467 36,000  Level FlightAware
06:18PM 47.1430 -78.4170 202° Southwest 406 467 36,000  Level FlightAware
06:19PM 47.0830 -78.4510 201° Southwest 405 466 36,000  Level FlightAware
06:19PM 47.0150 -78.4880 200° South 405 466 36,000  Level FlightAware
06:20PM 46.9560 -78.5210 201° Southwest 405 466 36,000  Level FlightAware
06:20PM 46.8930 -78.5570 201° Southwest 406 467 36,000  Level FlightAware
06:21PM 46.8290 -78.5930 201° Southwest 405 466 36,000  Level FlightAware
06:22PM 46.7760 -78.6220 201° Southwest 403 464 36,000  Level FlightAware
06:22PM 46.7110 -78.6580 201° Southwest 402 463 36,000  Level FlightAware
06:23PM 46.6530 -78.6900 201° Southwest 402 463 36,000  Level FlightAware
06:23PM 46.5870 -78.7270 201° Southwest 403 464 36,000  Level FlightAware
06:24PM 46.5300 -78.7590 201° Southwest 403 464 36,000  Level FlightAware
06:25PM 46.4680 -78.7930 201° Southwest 403 464 36,000  Level FlightAware
06:25PM 46.4050 -78.8270 200° South 403 464 36,000  Level FlightAware
06:26PM 46.3450 -78.8600 201° Southwest 404 465 36,000  Level FlightAware
06:26PM 46.2870 -78.8920 201° Southwest 407 468 36,000  Level FlightAware
06:27PM 46.2260 -78.9250 201° Southwest 408 470 36,000  Level FlightAware
06:27PM 46.1620 -78.9600 201° Southwest 408 470 36,000  Level FlightAware
06:28PM 46.1010 -78.9930 201° Southwest 408 470 36,000  Level FlightAware
06:29PM 46.0370 -79.0270 200° South 406 467 36,000  Level FlightAware
06:29PM 45.9760 -79.0610 201° Southwest 406 467 36,000  Level FlightAware
06:30PM 45.9110 -79.0960 201° Southwest 406 467 36,000  Level FlightAware
06:30PM 45.8550 -79.1260 200° South 404 465 36,000  Level FlightAware
06:31PM 45.7910 -79.1600 200° South 402 463 36,000  Level FlightAware
06:32PM 45.7270 -79.1950 201° Southwest 402 463 36,000  Level FlightAware
06:32PM 45.6710 -79.2240 200° South 402 463 36,000  Level FlightAware
06:33PM 45.6090 -79.2570 200° South 400 460 36,000  Level FlightAware
06:33PM 45.5470 -79.2900 200° South 398 458 36,000  Level FlightAware
06:34PM 45.4840 -79.3240 201° Southwest 399 459 36,000  Level FlightAware
06:34PM 45.4240 -79.3560 201° Southwest 400 460 36,000  Level FlightAware
06:35PM 45.3610 -79.3890 200° South 401 461 36,000  Level FlightAware
06:36PM 45.3030 -79.4190 200° South 403 464 36,000  Level FlightAware
06:36PM 45.2420 -79.4520 201° Southwest 402 463 36,000  Level FlightAware
06:37PM 45.1800 -79.4840 200° South 400 460 36,000  Level FlightAware
06:37PM 45.1230 -79.5130 200° South 398 458 36,000  Level FlightAware
06:38PM 45.0630 -79.5450 201° Southwest 396 456 36,000  Level FlightAware
06:39PM 45.0020 -79.5760 200° South 394 453 36,000  Level FlightAware
06:39PM 44.9460 -79.6060 201° Southwest 394 453 36,000  Level FlightAware
06:40PM 44.8820 -79.6390 200° South 394 453 36,000  Level FlightAware
06:40PM 44.8230 -79.6690 200° South 393 452 36,000  Level FlightAware
06:41PM 44.7590 -79.7020 200° South 391 450 36,000  Level FlightAware
06:41PM 44.7050 -79.7300 200° South 392 451 36,000  Level FlightAware
06:42PM 44.6450 -79.7610 200° South 395 455 36,000  Level FlightAware
06:43PM 44.5810 -79.7970 202° Southwest 390 449 36,000  Level FlightAware
06:43PM 44.5270 -79.8420 211° Southwest 384 442 36,000  Level FlightAware
06:44PM 44.4780 -79.8870 213° Southwest 383 441 36,000  Level FlightAware
06:44PM 44.4280 -79.9320 213° Southwest 383 441 36,000  Level FlightAware
06:45PM 44.3750 -79.9800 213° Southwest 383 441 36,000  Level FlightAware
06:46PM 44.3250 -80.0250 213° Southwest 380 437 36,000  Level FlightAware
06:46PM 44.2690 -80.0750 213° Southwest 382 440 36,000  Level FlightAware
06:47PM 44.2170 -80.1220 213° Southwest 385 443 36,000  Level FlightAware
06:47PM 44.1620 -80.1700 212° Southwest 386 444 36,000  Level FlightAware
06:48PM 44.1130 -80.2140 213° Southwest 388 447 36,000  Level FlightAware
06:48PM 44.0610 -80.2600 212° Southwest 388 447 36,000  Level FlightAware
06:49PM 44.0050 -80.3100 213° Southwest 386 444 36,000  Level FlightAware
06:50PM 43.9580 -80.3510 212° Southwest 384 442 36,000  Level FlightAware
06:50PM 43.9020 -80.4010 213° Southwest 383 441 36,000  Level FlightAware
06:51PM 43.8530 -80.4440 212° Southwest 382 440 36,000  Level FlightAware
06:51PM 43.7990 -80.4910 212° Southwest 383 441 36,000  Level FlightAware
06:52PM 43.7460 -80.5370 212° Southwest 383 441 36,000  Level FlightAware
06:53PM 43.6930 -80.5840 213° Southwest 381 438 36,000  Level FlightAware
06:53PM 43.6360 -80.6340 212° Southwest 379 436 36,000  Level FlightAware
06:54PM 43.5930 -80.6710 212° Southwest 381 438 36,000  Level FlightAware
06:54PM 43.5370 -80.7200 212° Southwest 381 438 36,000  Level FlightAware
06:55PM 43.4840 -80.7660 212° Southwest 382 440 36,000  Level FlightAware
06:55PM 43.4310 -80.8110 212° Southwest 382 440 36,000  Level FlightAware
06:56PM 43.3770 -80.8580 212° Southwest 382 440 36,000  Level FlightAware
06:57PM 43.3280 -80.9010 213° Southwest 382 440 36,000  Level FlightAware
06:57PM 43.2740 -80.9470 212° Southwest 381 438 36,000  Level FlightAware
06:58PM 43.2250 -80.9890 212° Southwest 382 440 36,000  Level FlightAware
06:58PM 43.1690 -81.0370 212° Southwest 380 437 36,000  Level FlightAware
06:59PM 43.1220 -81.0770 212° Southwest 381 438 36,000  Level FlightAware
06:59PM 43.0730 -81.1190 212° Southwest 380 437 36,000  Level FlightAware
07:00PM 43.0270 -81.1560 210° Southwest 386 444 36,000  Level FlightAware
07:01PM 42.9620 -81.1950 204° Southwest 387 445 36,000  Level FlightAware
07:01PM 42.9020 -81.2330 205° Southwest 387 445 36,000  Level FlightAware
07:02PM 42.8530 -81.2630 204° Southwest 386 444 36,000  Level FlightAware
07:02PM 42.7930 -81.3000 204° Southwest 386 444 36,000  Level FlightAware
07:03PM 42.7380 -81.3340 204° Southwest 386 444 36,000  Level FlightAware
07:04PM 42.6780 -81.3710 204° Southwest 386 444 36,000  Level FlightAware
07:04PM 42.6250 -81.4030 204° Southwest 388 447 36,000  Level FlightAware
07:05PM 42.5650 -81.4400 204° Southwest 389 448 36,000  Level FlightAware
07:05PM 42.5040 -81.4770 204° Southwest 391 450 36,000  Level FlightAware
07:06PM 42.4520 -81.5090 204° Southwest 391 450 36,000  Level FlightAware
07:06PM 42.3920 -81.5460 204° Southwest 390 449 36,000  Level FlightAware
07:07PM 42.3330 -81.5810 204° Southwest 389 448 36,000  Level FlightAware
07:08PM 42.2800 -81.6130 204° Southwest 388 447 36,000  Level FlightAware
07:08PM 42.2200 -81.6490 204° Southwest 388 447 36,000  Level FlightAware
07:09PM 42.1510 -81.6910 204° Southwest 387 445 36,000  Level FlightAware
07:09PM 42.0950 -81.7250 204° Southwest 387 445 36,000  Level FlightAware
07:10PM 42.0290 -81.7640 204° Southwest 387 445 36,000  Level FlightAware
07:11PM 41.9480 -81.8130 204° Southwest 386 444 36,000  Level FlightAware
07:12PM 41.8950 -81.8450 204° Southwest 384 442 36,000  Level FlightAware
07:12PM 41.8350 -81.8820 205° Southwest 382 440 36,000  Level FlightAware
07:13PM 41.7710 -81.9220 205° Southwest 382 440 36,000  Level FlightAware
07:13PM 41.7200 -81.9530 204° Southwest 382 440 36,000  Level FlightAware
07:14PM 41.6620 -81.9890 205° Southwest 383 441 36,000  Level FlightAware
07:14PM 41.6090 -82.0210 204° Southwest 382 440 36,000  Level FlightAware
07:15PM 41.5620 -82.0500 205° Southwest 382 440 36,000  Level FlightAware
07:16PM 41.4910 -82.0930 204° Southwest 384 442 36,000  Level FlightAware
07:16PM 41.4380 -82.1250 204° Southwest 384 442 36,000  Level FlightAware
07:17PM 41.3800 -82.1600 204° Southwest 384 442 36,000  Level FlightAware
07:17PM 41.3220 -82.1950 204° Southwest 382 440 36,000  Level FlightAware
07:18PM 41.2710 -82.2260 205° Southwest 382 440 36,000  Level FlightAware
07:19PM 41.2100 -82.2640 205° Southwest 381 438 36,000  Level FlightAware
07:19PM 41.1560 -82.2970 205° Southwest 379 436 36,000  Level FlightAware
07:20PM 41.1060 -82.3270 204° Southwest 378 435 36,000  Level FlightAware
07:20PM 41.0440 -82.3650 205° Southwest 378 435 36,000  Level FlightAware
07:21PM 40.9890 -82.3990 205° Southwest 378 435 36,000  Level FlightAware
07:22PM 40.9300 -82.4340 204° Southwest 380 437 36,000  Level FlightAware
07:22PM 40.8950 -82.4470 196° South 398 458 36,000  Level FlightAware
07:22PM 40.8350 -82.4580 188° South 401 461 36,000  Level FlightAware
07:23PM 40.7700 -82.4700 188° South 400 460 36,000  Level FlightAware
07:24PM 40.7040 -82.4830 188° South 400 460 36,000  Level FlightAware
07:24PM 40.6430 -82.4940 188° South 402 463 36,000  Level FlightAware
07:25PM 40.5730 -82.5080 189° South 402 463 36,000  Level FlightAware
07:25PM 40.5060 -82.5210 188° South 400 460 36,000  Level FlightAware
07:26PM 40.4500 -82.5310 188° South 398 458 36,000  Level FlightAware
07:26PM 40.3850 -82.5440 189° South 396 456 36,000  Level FlightAware
07:27PM 40.3190 -82.5560 188° South 396 456 36,000  Level FlightAware
07:28PM 40.2560 -82.5680 188° South 397 457 36,000  Level FlightAware
07:28PM 40.1960 -82.5800 189° South 399 459 36,000  Level FlightAware
07:29PM 40.1290 -82.5900 187° South 405 466 36,000  Level FlightAware
07:29PM 40.0600 -82.5950 183° South 406 467 36,000  Level FlightAware
07:30PM 40.0020 -82.5990 183° South 405 466 36,000  Level FlightAware
07:31PM 39.9310 -82.6030 182° South 404 465 36,000  Level FlightAware
07:31PM 39.8640 -82.6080 183° South 404 465 36,000  Level FlightAware
07:32PM 39.8040 -82.6120 183° South 403 464 36,000  Level FlightAware
07:32PM 39.7360 -82.6170 183° South 404 465 36,000  Level FlightAware
07:33PM 39.6690 -82.6210 183° South 405 466 36,000  Level FlightAware
07:34PM 39.6010 -82.6260 183° South 402 463 36,000  Level FlightAware
07:34PM 39.5410 -82.6300 183° South 401 461 36,000  Level FlightAware
07:35PM 39.4720 -82.6340 183° South 401 461 36,000  Level FlightAware
07:35PM 39.4130 -82.6380 183° South 402 463 36,000  Level FlightAware
07:36PM 39.3490 -82.6430 183° South 401 461 36,000  Level FlightAware
07:36PM 39.2790 -82.6470 183° South 400 460 36,000  Level FlightAware
07:37PM 39.2170 -82.6510 183° South 400 460 36,000  Level FlightAware
07:38PM 39.1520 -82.6560 183° South 399 459 36,000  Level FlightAware
07:38PM 39.0910 -82.6600 183° South 398 458 36,000  Level FlightAware
07:39PM 39.0210 -82.6640 183° South 399 459 36,000  Level FlightAware
07:39PM 38.9620 -82.6680 183° South 400 460 36,000  Level FlightAware
07:40PM 38.9000 -82.6720 183° South 402 463 36,000  Level FlightAware
07:40PM 38.8350 -82.6770 183° South 402 463 36,000  Level FlightAware
07:41PM 38.7610 -82.6820 183° South 402 463 36,000  Level FlightAware
07:42PM 38.7030 -82.6850 182° South 403 464 36,000  Level FlightAware
07:43PM 38.6030 -82.6920 183° South 402 463 36,000  Level FlightAware
07:43PM 38.5360 -82.6960 183° South 400 460 36,000  Level FlightAware
07:44PM 38.4780 -82.7000 183° South 400 460 36,000  Level FlightAware
07:44PM 38.4140 -82.7040 183° South 399 459 36,000  Level FlightAware
07:45PM 38.3440 -82.7090 183° South 396 456 36,000  Level FlightAware
07:45PM 38.2840 -82.7120 182° South 396 456 36,000  Level FlightAware
07:46PM 38.2210 -82.7160 183° South 394 453 36,000  Level FlightAware
07:47PM 38.1530 -82.7210 183° South 394 453 36,000  Level FlightAware
07:47PM 38.0995 -82.7245 183° South 396 456 36,000  Level FlightAware ADS-B
07:48PM 38.0393 -82.7283 183° South 398 458 36,000  Level FlightAware ADS-B
07:48PM 37.9769 -82.7323 183° South 400 460 36,000  Level FlightAware ADS-B
07:49PM 37.9205 -82.7359 183° South 401 461 36,000  Level FlightAware ADS-B
07:49PM 37.8397 -82.7411 183° South 401 461 36,000  Level FlightAware ADS-B
07:50PM 37.7776 -82.7453 183° South 399 459 36,000  Level FlightAware ADS-B
07:51PM 37.7228 -82.7535 187° South 390 449 36,000  Level FlightAware ADS-B
07:51PM 37.6552 -82.7740 194° South 376 433 36,000  Level FlightAware ADS-B
07:51PM 37.6286 -82.7862 200° South 370 426 36,000  Level FlightAware ADS-B
07:52PM 37.6057 -82.7989 204° Southwest 366 421 36,000  Level FlightAware ADS-B
07:52PM 37.5471 -82.8377 208° Southwest 363 418 36,000  Level FlightAware ADS-B
07:53PM 37.4899 -82.8755 208° Southwest 364 419 36,000  Level FlightAware ADS-B
07:53PM 37.4448 -82.9051 208° Southwest 364 419 36,000  Level FlightAware ADS-B
07:54PM 37.4008 -82.9340 208° Southwest 363 418 36,000  Level FlightAware ADS-B
07:55PM 37.3511 -82.9666 208° Southwest 362 417 36,000  Level FlightAware ADS-B
07:55PM 37.3057 -82.9964 208° Southwest 360 414 36,000  Level FlightAware ADS-B
07:56PM 37.2605 -83.0259 207° Southwest 358 412 36,000  Level FlightAware ADS-B
07:56PM 37.2167 -83.0546 208° Southwest 359 413 36,000  Level FlightAware ADS-B
07:57PM 37.1714 -83.0841 207° Southwest 359 413 36,000  Level FlightAware ADS-B
07:57PM 37.1261 -83.1135 207° Southwest 356 410 36,000  Level FlightAware ADS-B
07:58PM 37.0808 -83.1429 207° Southwest 354 407 36,000  Level FlightAware ADS-B
07:58PM 37.0342 -83.1732 207° Southwest 354 407 36,000  Level FlightAware ADS-B
07:59PM 36.9892 -83.2024 207° Southwest 355 409 36,000  Level FlightAware ADS-B
07:59PM 36.9447 -83.2314 208° Southwest 356 410 36,000  Level FlightAware ADS-B
08:00PM 36.9001 -83.2602 207° Southwest 356 410 36,000  Level FlightAware ADS-B
08:00PM 36.8536 -83.2903 207° Southwest 356 410 36,000  Level FlightAware ADS-B
08:01PM 36.8094 -83.3189 207° Southwest 356 410 36,000  Level FlightAware ADS-B
08:01PM 36.7650 -83.3475 207° Southwest 354 407 36,000  Level FlightAware ADS-B
08:02PM 36.7188 -83.3772 207° Southwest 352 405 36,000  Level FlightAware ADS-B
08:02PM 36.6732 -83.4066 207° Southwest 356 410 36,000  Level FlightAware ADS-B
08:03PM 36.6257 -83.4371 207° Southwest 357 411 36,000  Level FlightAware ADS-B
08:03PM 36.5812 -83.4656 207° Southwest 358 412 36,000  Level FlightAware ADS-B
08:04PM 36.5359 -83.4945 207° Southwest 358 412 36,000  Level FlightAware ADS-B
08:04PM 36.4916 -83.5229 207° Southwest 359 413 36,000  Level FlightAware ADS-B
08:05PM 36.4466 -83.5516 207° Southwest 359 413 36,000  Level FlightAware ADS-B
08:05PM 36.4034 -83.5792 207° Southwest 359 413 36,000  Level FlightAware ADS-B
08:06PM 36.3560 -83.6093 207° Southwest 359 413 36,000  Level FlightAware ADS-B
08:06PM 36.3109 -83.6381 207° Southwest 360 414 36,000  Level FlightAware ADS-B
08:07PM 36.2642 -83.6677 207° Southwest 359 413 36,000  Level FlightAware ADS-B
08:07PM 36.2124 -83.7005 207° Southwest 353 406 36,000  Level FlightAware ADS-B
08:08PM 36.1673 -83.7292 207° Southwest 353 406 36,000  Level FlightAware ADS-B
08:09PM 36.1153 -83.7620 207° Southwest 352 405 36,000  Level FlightAware ADS-B
08:09PM 36.0590 -83.7976 207° Southwest 352 405 36,000  Level FlightAware ADS-B
08:10PM 36.0148 -83.8256 207° Southwest 352 405 36,000  Level FlightAware ADS-B
08:10PM 35.9660 -83.8562 207° Southwest 352 405 36,000  Level FlightAware ADS-B
08:11PM 35.9387 -83.8732 207° Southwest 353 406 36,000  Level FlightAware ADS-B
08:11PM 35.8999 -83.8918 201° Southwest 362 417 36,000  Level FlightAware ADS-B
08:11PM 35.8796 -83.8992 196° South 366 421 36,000  Level FlightAware ADS-B
08:11PM 35.8600 -83.9050 193° South 371 427 36,000  Level FlightAware ADS-B
08:12PM 35.8084 -83.9175 191° South 371 427 36,000  Level FlightAware ADS-B
08:12PM 35.7545 -83.9311 192° South 372 428 36,000  Level FlightAware ADS-B
08:13PM 35.7017 -83.9442 191° South 372 428 36,000  Level FlightAware ADS-B
08:13PM 35.6506 -83.9566 191° South 373 429 36,000  Level FlightAware ADS-B
08:14PM 35.5894 -83.9714 191° South 373 429 36,000  Level FlightAware ADS-B
08:15PM 35.5348 -83.9845 191° South 372 428 36,000  Level FlightAware ADS-B
08:16PM 35.4453 -84.0062 191° South 372 428 36,000  Level FlightAware ADS-B
08:16PM 35.3922 -84.0190 191° South 373 429 36,000  Level FlightAware ADS-B
08:17PM 35.3391 -84.0319 191° South 378 435 36,000  Level FlightAware ADS-B
08:17PM 35.2866 -84.0445 191° South 378 435 36,000  Level FlightAware ADS-B
08:18PM 35.2328 -84.0574 191° South 377 434 36,000  Level FlightAware ADS-B
08:18PM 35.1766 -84.0710 191° South 377 434 36,000  Level FlightAware ADS-B
08:19PM 35.0995 -84.0894 191° South 377 434 36,000  Level FlightAware ADS-B
08:19PM 35.0462 -84.1022 191° South 377 434 36,000  Level FlightAware ADS-B
08:20PM 34.9930 -84.1149 191° South 379 436 36,000  Level FlightAware ADS-B
08:21PM 34.8930 -84.1390 191° South 382 440 36,000  Level FlightAware
08:21PM 34.8788 -84.1422 190° South 379 436 36,000  Level FlightAware ADS-B
08:22PM 34.8233 -84.1554 191° South 389 448 36,000  Level FlightAware ADS-B
08:22PM 34.7688 -84.1685 191° South 399 459 36,000  Level FlightAware ADS-B
08:23PM 34.7139 -84.1814 191° South 399 459 36,000  Level FlightAware ADS-B
08:23PM 34.6460 -84.1970 191° South 393 452 36,000  Level FlightAware
08:23PM 34.6283 -84.2015 192° South 391 450 36,000  Level FlightAware ADS-B
08:24PM 34.5764 -84.2137 191° South 388 447 36,000  Level FlightAware ADS-B
08:24PM 34.5216 -84.2266 191° South 388 447 36,000  Level FlightAware ADS-B
08:25PM 34.4679 -84.2394 191° South 388 447 36,000  Level FlightAware ADS-B
08:25PM 34.4148 -84.2519 191° South 389 448 36,000  Level FlightAware ADS-B
08:26PM 34.3589 -84.2650 191° South 389 448 36,000  Level FlightAware ADS-B
08:27PM 34.2680 -84.2860 191° South 390 449 36,000  Level FlightAware
08:29PM 34.1111 -84.3178 189° South  Level FlightAware Approximate
08:30PM 34.0189 -84.3368 191° South  Level FlightAware Approximate
08:31PM 33.9271 -84.3589 191° South  Level FlightAware Approximate
08:31PM 33.7727 -84.4018 191° South 397 457 36,000  Level FlightAware ADS-B
08:32PM 33.7187 -84.4144 191° South 399 459 36,000  Level FlightAware ADS-B
08:32PM 33.6627 -84.4272 191° South 403 464 36,000  Level FlightAware ADS-B
08:33PM 33.6273 -84.4322 187° South 412 474 36,000  Level FlightAware ADS-B
08:33PM 33.6036 -84.4338 183° South 418 481 36,000  Level FlightAware ADS-B
08:33PM 33.5858 -84.4341 181° South 422 486 36,000  Level FlightAware ADS-B
08:34PM 33.4844 -84.4319 179° South 424 488 36,000  Level FlightAware ADS-B
08:35PM 33.3860 -84.4300 179° South 417 480 36,000  Level FlightAware
08:35PM 33.3376 -84.4291 179° South 424 488 36,000  Level FlightAware ADS-B
08:36PM 33.2440 -84.4270 179° South 426 490 36,000  Level FlightAware
08:37PM 33.1810 -84.4260 179° South 426 490 36,000  Level FlightAware
08:37PM 33.1070 -84.4240 179° South 427 491 36,000  Level FlightAware
08:38PM 33.0480 -84.4230 179° South 427 491 36,000  Level FlightAware
08:38PM 32.9810 -84.4220 179° South 427 491 36,000  Level FlightAware
08:39PM 32.8970 -84.4200 179° South 428 493 36,000  Level FlightAware
08:39PM 32.8460 -84.4190 179° South 428 493 36,000  Level FlightAware
08:40PM 32.7720 -84.4180 179° South 428 493 36,000  Level FlightAware
08:41PM 32.7050 -84.4160 179° South 429 494 36,000  Level FlightAware
08:41PM 32.6330 -84.4150 179° South 429 494 36,000  Level FlightAware
08:42PM 32.5640 -84.4130 179° South 428 493 36,000  Level FlightAware
08:42PM 32.5030 -84.4120 179° South 428 493 36,000  Level FlightAware
08:43PM 32.4430 -84.4110 179° South 428 493 36,000  Level FlightAware
08:44PM 32.3820 -84.4100 179° South 428 493 36,000  Level FlightAware
08:44PM 32.3200 -84.4080 178° South 428 493 36,000  Level FlightAware
08:45PM 32.2590 -84.4070 179° South 428 493 36,000  Level FlightAware
08:45PM 32.1990 -84.4060 179° South 428 493 36,000  Level FlightAware
08:46PM 32.1380 -84.4050 179° South 428 493 36,000  Level FlightAware
08:47PM 32.0780 -84.4030 178° South 428 493 36,000  Level FlightAware
08:49PM 31.9050 -84.3953 178° South  Level FlightAware Approximate
08:50PM 31.8115 -84.3912 178° South  Level FlightAware Approximate
08:50PM 31.5550 -84.3930 178° South 428 493 36,000  Level FlightAware
08:50PM 31.5211 -84.3927 180° South 427 491 36,000  Level FlightAware ADS-B (KTLH)
08:51PM 31.4010 -84.3900 179° South 427 491 36,000  Level FlightAware
08:52PM 31.3290 -84.3890 179° South 428 493 36,000 120 Level FlightAware
08:53PM 31.2620 -84.3880 179° South 428 493 36,200 360 Climbing FlightAware
08:53PM 31.2093 -84.3866 179° South 429 494 36,400 480 Climbing FlightAware ADS-B (KTLH)
08:54PM 31.1280 -84.3850 179° South 427 491 36,800 540 Climbing FlightAware
08:54PM 31.1059 -84.3846 179° South 427 491 36,900 120 Climbing FlightAware ADS-B (KTLH)
08:55PM 30.9840 -84.3820 179° South 424 488 37,000 60 Climbing FlightAware
08:55PM 30.9523 -84.3816 179° South 426 490 37,000  Level FlightAware ADS-B (KTLH)
08:56PM 30.8670 -84.3800 179° South 424 488 37,000  Level FlightAware
08:57PM 30.7770 -84.3780 179° South 425 489 37,000  Level FlightAware
08:57PM 30.7517 -84.3777 180° South 425 489 37,000  Level FlightAware ADS-B (KTLH)
08:58PM 30.6250 -84.3690 177° South 435 501 37,000  Level FlightAware
08:58PM 30.6180 -84.3672 167° South 437 503 37,000  Level FlightAware ADS-B (KTLH)
08:59PM 30.5580 -84.3520 168° South 444 511 37,000  Level FlightAware
08:59PM 30.4890 -84.3240 161° South 454 522 37,000  Level FlightAware
09:00PM 30.4210 -84.2850 154° Southeast 464 534 37,000  Level FlightAware
09:00PM 30.3640 -84.2480 151° Southeast 463 533 37,000  Level FlightAware
09:01PM 30.2910 -84.2000 150° Southeast 461 531 37,000  Level FlightAware
09:02PM 30.2230 -84.1550 150° Southeast 461 531 37,000  Level FlightAware
09:02PM 30.1620 -84.1160 151° Southeast 463 533 37,000  Level FlightAware
09:03PM 30.0990 -84.0750 151° Southeast 463 533 37,000  Level FlightAware
09:03PM 30.0300 -84.0300 151° Southeast 463 533 37,000  Level FlightAware
09:04PM 29.9690 -83.9904 151° Southeast 464 534 37,000  Level FlightAware ADS-B (KTLH)
09:04PM 29.9040 -83.9480 151° Southeast 463 533 37,000  Level FlightAware
09:05PM 29.8380 -83.9060 151° Southeast 463 533 37,000  Level FlightAware
09:06PM 29.7010 -83.8170 151° Southeast 464 534 37,000  Level FlightAware
09:07PM 29.6390 -83.7770 151° Southeast 465 535 37,000  Level FlightAware
09:07PM 29.5700 -83.7330 151° Southeast 467 537 37,000  Level FlightAware
09:08PM 29.5090 -83.6930 150° Southeast 467 537 37,000  Level FlightAware
09:09PM 29.4350 -83.6460 151° Southeast 466 536 37,000  Level FlightAware
09:09PM 29.3820 -83.6120 151° Southeast 466 536 37,000  Level FlightAware
09:10PM 29.3050 -83.5630 151° Southeast 466 536 37,000  Level FlightAware
09:10PM 29.2390 -83.5210 151° Southeast 466 536 37,000  Level FlightAware
09:11PM 29.2050 -83.4990 151° Southeast 466 536 37,000  Level FlightAware
09:12PM 29.1010 -83.4330 151° Southeast 467 537 37,000  Level FlightAware
09:12PM 29.0330 -83.3900 151° Southeast 468 539 37,000  Level FlightAware
09:13PM 28.9690 -83.3490 151° Southeast 469 540 37,000  Level FlightAware
09:13PM 28.9020 -83.3060 151° Southeast 469 540 37,000  Level FlightAware
09:14PM 28.8280 -83.2600 151° Southeast 469 540 37,000  Level FlightAware
09:14PM 28.7710 -83.2240 151° Southeast 469 540 37,000  Level FlightAware
09:15PM 28.7030 -83.1810 151° Southeast 470 541 37,000  Level FlightAware
09:15PM 28.6504 -83.1480 151° Southeast 469 540 37,000  Level FlightAware ADS-B (KMCO)
09:16PM 28.5726 -83.0991 151° Southeast 469 540 37,000  Level FlightAware ADS-B (KMCO)
09:17PM 28.4970 -83.0520 151° Southeast 467 537 37,000  Level FlightAware
09:17PM 28.4310 -83.0100 151° Southeast 467 537 37,000  Level FlightAware
09:18PM 28.4173 -83.0015 152° Southeast 469 540 37,000  Level FlightAware ADS-B (KMCO)
09:19PM 28.3000 -82.9280 151° Southeast 468 539 37,000  Level FlightAware
09:19PM 28.2765 -82.9136 152° Southeast 469 540 37,000  Level FlightAware ADS-B (KMCO)
09:19PM 28.2138 -82.8744 151° Southeast 470 541 37,000  Level FlightAware ADS-B (KMCO)
09:20PM 28.1010 -82.8040 151° Southeast 471 542 37,000  Level FlightAware
09:21PM 28.0389 -82.7656 151° Southeast 472 543 37,000  Level FlightAware ADS-B (KMCO)
09:21PM 27.9859 -82.7327 151° Southeast 472 543 37,000  Level FlightAware ADS-B (KMCO)
09:24PM 27.7648 -82.5925 149° Southeast  Level FlightAware Approximate
09:25PM 27.6659 -82.5263 149° Southeast  Level FlightAware Approximate
09:26PM 27.5670 -82.4602 149° Southeast  Level FlightAware Approximate
09:27PM 27.4681 -82.3942 149° Southeast  Level FlightAware Approximate
09:28PM 27.3691 -82.3283 149° Southeast  Level FlightAware Approximate
09:29PM 27.2701 -82.2626 149° Southeast  Level FlightAware Approximate
09:30PM 27.1710 -82.1970 149° Southeast  Level FlightAware Approximate
09:31PM 27.0720 -82.1314 150° Southeast  Level FlightAware Approximate
09:32PM 26.9729 -82.0660 150° Southeast  Level FlightAware Approximate
09:33PM 26.8737 -82.0007 150° Southeast  Level FlightAware Approximate
09:34PM 26.7746 -81.9356 150° Southeast  Level FlightAware Approximate
09:35PM 26.6754 -81.8705 150° Southeast  Level FlightAware Approximate
09:36PM 26.5762 -81.8056 150° Southeast  Level FlightAware Approximate
09:37PM 26.4732 -81.7498 161° South  Level FlightAware Approximate
09:38PM 26.3646 -81.7076 161° South  Level FlightAware Approximate
09:39PM 26.2561 -81.6655 161° South  Level FlightAware Approximate
09:40PM 26.1474 -81.6235 161° South  Level FlightAware Approximate
09:41PM 26.0388 -81.5816 161° South  Level FlightAware Approximate
09:42PM 25.9302 -81.5398 161° South  Level FlightAware Approximate
09:43PM 25.8216 -81.4980 161° South  Level FlightAware Approximate
09:43PM 25.3200 -82.5631 161° South 457 526 37,000  Level Miami Center
09:44PM 25.7127 -81.4570 161° South  Level FlightAware Approximate
09:45PM 25.6038 -81.4164 161° South  Level FlightAware Approximate
09:46PM 25.4948 -81.3759 161° South  Level FlightAware Approximate
09:47PM 25.3858 -81.3354 161° South  Level FlightAware Approximate
09:48PM 25.2768 -81.2951 161° South  Level FlightAware Approximate
09:48PM 24.6730 -82.7560 161° South 456 525 32,100  Level FlightAware
09:49PM 24.6100 -82.8120 219° Southwest 457 526 31,400 -540 Descending FlightAware
09:49PM 24.5590 -82.8580 219° Southwest 457 526 31,400  Level FlightAware
09:50PM 24.5060 -82.9050 219° Southwest 457 526 31,400  Level FlightAware
09:51PM 24.4550 -82.9500 219° Southwest 457 526 31,400  Level FlightAware
09:51PM 24.3910 -83.0070 219° Southwest 457 526 31,400  Level FlightAware
09:52PM 24.3390 -83.0530 219° Southwest 457 526 31,400  Level FlightAware
09:53PM 24.2880 -83.0990 219° Southwest 457 526 31,400  Level FlightAware
09:53PM 24.2370 -83.1430 218° Southwest 457 526 31,400  Level FlightAware
09:54PM 24.1870 -83.1880 219° Southwest 457 526 31,400  Level FlightAware
09:54PM 24.1370 -83.2330 219° Southwest 457 526 31,400  Level FlightAware
09:55PM 24.0870 -83.2770 219° Southwest 457 526 31,400  Level FlightAware
09:56PM 24.0360 -83.3220 219° Southwest 457 526 31,400  Level FlightAware
09:56PM 23.9860 -83.3660 219° Southwest 457 526 31,400  Level FlightAware
09:57PM 23.9360 -83.4110 219° Southwest 457 526 31,400  Level FlightAware
09:57PM 23.8850 -83.4560 219° Southwest 457 526 31,400  Level FlightAware
10:00PM 23.7261 -83.2686 133° Southeast  Level Estimated
10:01PM 23.6479 -83.1767 133° Southeast  Level Estimated
10:02PM 23.5696 -83.0848 133° Southeast  Level Estimated
10:03PM 23.4912 -82.9931 133° Southeast  Level Estimated
10:04PM 23.4128 -82.9014 133° Southeast  Level Estimated
10:05PM 23.3344 -82.8099 133° Southeast  Level Estimated
10:06PM 23.2559 -82.7185 133° Southeast  Level Estimated
10:07PM 23.1773 -82.6271 133° Southeast  Level Estimated
10:08PM 23.0987 -82.5359 133° Southeast  Level Estimated
10:09PM 23.0201 -82.4448 133° Southeast  Level Estimated
10:10PM 22.9891 -82.4091 133° Southeast  Level Estimated
10:11PM 22.9891 -82.4091 51° Northeast  Level Estimated
10:12PM 22.9891 -82.4091 51° Northeast  Level Estimated
10:13PM 22.9891 -82.4091 51° Northeast  Level Estimated
10:14PM 22.9891 -82.4091 51° Northeast  Level Estimated
10:15PM 22.9891 -82.4091 51° Northeast  Level Estimated
10:16PM 22.9891 -82.4091 51° Northeast  Level Estimated
10:17PM 22.9891 -82.4091 51° Northeast  Level Estimated
10:18PM 22.9891 -82.4091 51° Northeast  Level Estimated
10:19PM 22.9891 -82.4091 51° Northeast  Level Estimated
10:20PM 22.9891 -82.4091 51° Northeast  Level Estimated
10:21PM 22.9891 -82.4091 51° Northeast  Level Estimated
10:22PM 22.9891 -82.4091 51° Northeast  Level Estimated
10:23PM 22.9891 -82.4091 51° Northeast  Level Estimated
10:24PM 22.9891 -82.4091 51° Northeast  Level Estimated
10:25PM 22.9891 -82.4091 51° Northeast  Level Estimated
10:26PM 22.9891 -82.4091 51° Northeast  Level Estimated
10:27PM 22.9891 -82.4091 51° Northeast  Level Estimated
10:28PM 22.9891 -82.4091 51° Northeast  Level Estimated
10:29PM 22.9891 -82.4091 51° Northeast  Level Estimated
10:30PM 22.9891 -82.4091 51° Northeast  Level Estimated
10:31PM 22.9891 -82.4091 51° Northeast  Level Estimated
10:32PM 22.9891 -82.4091 51° Northeast  Level Estimated